<?xml version="1.0" encoding="UTF-8" standalone="no" ?>
<gpx xmlns="http://www.topografix.com/GPX/1/1" xmlns:xsi="http://www.w3.org/2001/XMLSchema-instance" xsi:schemaLocation="http://www.topografix.com/GPX/1/1 http://www.topografix.com/GPX/1/1/gpx.xsd" version="1.1" creator="VisuGPX - https://www.visugpx.com">
  <metadata>
    <name>Castelculier Téléthon 8.5 km</name>
  </metadata>
  <trk>
    <name><![CDATA[2025 12 07 Castelculier Téléthon Pierre 8]]></name>
    <extensions>
      <line xmlns="http://www.topografix.com/GPX/gpx_style/0/2">
        <color>FF0000</color>
        <width>4</width>
      </line>
    </extensions>
    <trkseg>
      <trkpt lat="44.17466" lon="0.69443">
        <ele>53</ele>
        <time>2025-12-07T13:25:24.148Z</time>
      </trkpt>
      <trkpt lat="44.17502" lon="0.69564">
        <ele>53.1</ele>
      </trkpt>
      <trkpt lat="44.17545" lon="0.69572">
        <ele>55.6</ele>
      </trkpt>
      <trkpt lat="44.17568" lon="0.69699">
        <ele>54.4</ele>
      </trkpt>
      <trkpt lat="44.17574" lon="0.69871">
        <ele>57.1</ele>
      </trkpt>
      <trkpt lat="44.17591" lon="0.69976">
        <ele>54.9</ele>
      </trkpt>
      <trkpt lat="44.17493" lon="0.70244">
        <ele>57.6</ele>
        <time>2025-12-07T13:25:25.148Z</time>
      </trkpt>
      <trkpt lat="44.17477" lon="0.70336">
        <ele>100</ele>
        <time>2025-12-07T13:25:31.148Z</time>
      </trkpt>
      <trkpt lat="44.17466" lon="0.70365">
        <ele>69</ele>
        <time>2025-12-07T13:25:51.148Z</time>
      </trkpt>
      <trkpt lat="44.17457" lon="0.70377">
        <ele>62</ele>
        <time>2025-12-07T13:25:59.148Z</time>
      </trkpt>
      <trkpt lat="44.17438" lon="0.70438">
        <ele>48</ele>
        <time>2025-12-07T13:26:39.148Z</time>
      </trkpt>
      <trkpt lat="44.17427" lon="0.70489">
        <ele>48</ele>
        <time>2025-12-07T13:27:11.148Z</time>
      </trkpt>
      <trkpt lat="44.17427" lon="0.70495">
        <ele>48</ele>
        <time>2025-12-07T13:27:15.148Z</time>
      </trkpt>
      <trkpt lat="44.17424" lon="0.70508">
        <ele>46</ele>
        <time>2025-12-07T13:27:23.148Z</time>
      </trkpt>
      <trkpt lat="44.17423" lon="0.70522">
        <ele>47</ele>
        <time>2025-12-07T13:27:33.148Z</time>
      </trkpt>
      <trkpt lat="44.17426" lon="0.70529">
        <ele>51</ele>
        <time>2025-12-07T13:27:49.148Z</time>
      </trkpt>
      <trkpt lat="44.17431" lon="0.70534">
        <ele>51</ele>
        <time>2025-12-07T13:28:21.148Z</time>
      </trkpt>
      <trkpt lat="44.17441" lon="0.70539">
        <ele>51</ele>
        <time>2025-12-07T13:28:29.148Z</time>
      </trkpt>
      <trkpt lat="44.17446" lon="0.70541">
        <ele>52</ele>
        <time>2025-12-07T13:28:33.148Z</time>
      </trkpt>
      <trkpt lat="44.17462" lon="0.70553">
        <ele>52</ele>
        <time>2025-12-07T13:28:45.148Z</time>
      </trkpt>
      <trkpt lat="44.17467" lon="0.70554">
        <ele>53</ele>
        <time>2025-12-07T13:28:49.148Z</time>
      </trkpt>
      <trkpt lat="44.17477" lon="0.70557">
        <ele>53</ele>
        <time>2025-12-07T13:28:57.148Z</time>
      </trkpt>
      <trkpt lat="44.17487" lon="0.70561">
        <ele>53</ele>
        <time>2025-12-07T13:29:05.148Z</time>
      </trkpt>
      <trkpt lat="44.17492" lon="0.70565">
        <ele>53</ele>
        <time>2025-12-07T13:29:09.148Z</time>
      </trkpt>
      <trkpt lat="44.17501" lon="0.7057">
        <ele>53</ele>
        <time>2025-12-07T13:29:17.148Z</time>
      </trkpt>
      <trkpt lat="44.17522" lon="0.70577">
        <ele>56</ele>
        <time>2025-12-07T13:29:33.148Z</time>
      </trkpt>
      <trkpt lat="44.17533" lon="0.70578">
        <ele>56</ele>
        <time>2025-12-07T13:29:41.148Z</time>
      </trkpt>
      <trkpt lat="44.17543" lon="0.70578">
        <ele>58</ele>
        <time>2025-12-07T13:29:49.148Z</time>
      </trkpt>
      <trkpt lat="44.17548" lon="0.70577">
        <ele>59</ele>
        <time>2025-12-07T13:29:54.148Z</time>
      </trkpt>
      <trkpt lat="44.1755" lon="0.70575">
        <ele>59</ele>
        <time>2025-12-07T13:29:56.148Z</time>
      </trkpt>
      <trkpt lat="44.17554" lon="0.70574">
        <ele>59</ele>
        <time>2025-12-07T13:30:00.148Z</time>
      </trkpt>
      <trkpt lat="44.1756" lon="0.70568">
        <ele>61</ele>
        <time>2025-12-07T13:30:08.148Z</time>
      </trkpt>
      <trkpt lat="44.17569" lon="0.70565">
        <ele>62</ele>
        <time>2025-12-07T13:30:16.148Z</time>
      </trkpt>
      <trkpt lat="44.1758" lon="0.70557">
        <ele>64</ele>
        <time>2025-12-07T13:30:28.148Z</time>
      </trkpt>
      <trkpt lat="44.17582" lon="0.70553">
        <ele>65</ele>
        <time>2025-12-07T13:30:32.148Z</time>
      </trkpt>
      <trkpt lat="44.17586" lon="0.70551">
        <ele>66</ele>
        <time>2025-12-07T13:30:36.148Z</time>
      </trkpt>
      <trkpt lat="44.17592" lon="0.70544">
        <ele>68</ele>
        <time>2025-12-07T13:30:44.148Z</time>
      </trkpt>
      <trkpt lat="44.17596" lon="0.70543">
        <ele>68</ele>
        <time>2025-12-07T13:30:48.148Z</time>
      </trkpt>
      <trkpt lat="44.17601" lon="0.7054">
        <ele>68</ele>
        <time>2025-12-07T13:30:52.148Z</time>
      </trkpt>
      <trkpt lat="44.17604" lon="0.70536">
        <ele>68</ele>
        <time>2025-12-07T13:30:56.148Z</time>
      </trkpt>
      <trkpt lat="44.17606" lon="0.70536">
        <ele>68</ele>
        <time>2025-12-07T13:30:58.148Z</time>
      </trkpt>
      <trkpt lat="44.17618" lon="0.70525">
        <ele>67</ele>
        <time>2025-12-07T13:31:10.148Z</time>
      </trkpt>
      <trkpt lat="44.17647" lon="0.70507">
        <ele>70</ele>
        <time>2025-12-07T13:31:38.148Z</time>
      </trkpt>
      <trkpt lat="44.17651" lon="0.70503">
        <ele>69</ele>
        <time>2025-12-07T13:31:42.148Z</time>
      </trkpt>
      <trkpt lat="44.17653" lon="0.70501">
        <ele>68</ele>
        <time>2025-12-07T13:31:44.148Z</time>
      </trkpt>
      <trkpt lat="44.17656" lon="0.70501">
        <ele>67</ele>
        <time>2025-12-07T13:31:46.148Z</time>
      </trkpt>
      <trkpt lat="44.17668" lon="0.70492">
        <ele>68</ele>
        <time>2025-12-07T13:31:58.148Z</time>
      </trkpt>
      <trkpt lat="44.17682" lon="0.70484">
        <ele>69</ele>
        <time>2025-12-07T13:32:10.148Z</time>
      </trkpt>
      <trkpt lat="44.17685" lon="0.7048">
        <ele>70</ele>
        <time>2025-12-07T13:32:14.148Z</time>
      </trkpt>
      <trkpt lat="44.17695" lon="0.70475">
        <ele>70</ele>
        <time>2025-12-07T13:32:22.148Z</time>
      </trkpt>
      <trkpt lat="44.17697" lon="0.70473">
        <ele>70</ele>
        <time>2025-12-07T13:32:24.148Z</time>
      </trkpt>
      <trkpt lat="44.17707" lon="0.70467">
        <ele>71</ele>
        <time>2025-12-07T13:32:32.148Z</time>
      </trkpt>
      <trkpt lat="44.17721" lon="0.70458">
        <ele>70</ele>
        <time>2025-12-07T13:32:44.148Z</time>
      </trkpt>
      <trkpt lat="44.17727" lon="0.70449">
        <ele>71</ele>
        <time>2025-12-07T13:32:52.148Z</time>
      </trkpt>
      <trkpt lat="44.17732" lon="0.70445">
        <ele>71</ele>
        <time>2025-12-07T13:32:56.148Z</time>
      </trkpt>
      <trkpt lat="44.17733" lon="0.70442">
        <ele>71</ele>
        <time>2025-12-07T13:32:58.148Z</time>
      </trkpt>
      <trkpt lat="44.17736" lon="0.7044">
        <ele>72</ele>
        <time>2025-12-07T13:33:02.148Z</time>
      </trkpt>
      <trkpt lat="44.17739" lon="0.70438">
        <ele>73</ele>
        <time>2025-12-07T13:33:06.148Z</time>
      </trkpt>
      <trkpt lat="44.17741" lon="0.70435">
        <ele>74</ele>
        <time>2025-12-07T13:33:10.148Z</time>
      </trkpt>
      <trkpt lat="44.1775" lon="0.70428">
        <ele>74</ele>
        <time>2025-12-07T13:33:18.148Z</time>
      </trkpt>
      <trkpt lat="44.17752" lon="0.70427">
        <ele>73</ele>
        <time>2025-12-07T13:33:20.148Z</time>
      </trkpt>
      <trkpt lat="44.17763" lon="0.70417">
        <ele>73</ele>
        <time>2025-12-07T13:33:30.148Z</time>
      </trkpt>
      <trkpt lat="44.17764" lon="0.70415">
        <ele>73</ele>
        <time>2025-12-07T13:33:32.148Z</time>
      </trkpt>
      <trkpt lat="44.17769" lon="0.70412">
        <ele>73</ele>
        <time>2025-12-07T13:33:36.148Z</time>
      </trkpt>
      <trkpt lat="44.17777" lon="0.70405">
        <ele>73</ele>
        <time>2025-12-07T13:33:44.148Z</time>
      </trkpt>
      <trkpt lat="44.17785" lon="0.70395">
        <ele>75</ele>
        <time>2025-12-07T13:33:52.148Z</time>
      </trkpt>
      <trkpt lat="44.17794" lon="0.70388">
        <ele>77</ele>
        <time>2025-12-07T13:34:00.148Z</time>
      </trkpt>
      <trkpt lat="44.17798" lon="0.70384">
        <ele>77</ele>
        <time>2025-12-07T13:34:04.148Z</time>
      </trkpt>
      <trkpt lat="44.17808" lon="0.70369">
        <ele>77</ele>
        <time>2025-12-07T13:34:16.148Z</time>
      </trkpt>
      <trkpt lat="44.17815" lon="0.70362">
        <ele>78</ele>
        <time>2025-12-07T13:34:24.148Z</time>
      </trkpt>
      <trkpt lat="44.1782" lon="0.70358">
        <ele>78</ele>
        <time>2025-12-07T13:34:28.148Z</time>
      </trkpt>
      <trkpt lat="44.17844" lon="0.70335">
        <ele>79</ele>
        <time>2025-12-07T13:34:52.148Z</time>
      </trkpt>
      <trkpt lat="44.17847" lon="0.70332">
        <ele>80</ele>
        <time>2025-12-07T13:34:56.148Z</time>
      </trkpt>
      <trkpt lat="44.17853" lon="0.70331">
        <ele>80</ele>
        <time>2025-12-07T13:35:00.148Z</time>
      </trkpt>
      <trkpt lat="44.17854" lon="0.70328">
        <ele>80</ele>
        <time>2025-12-07T13:35:02.148Z</time>
      </trkpt>
      <trkpt lat="44.17859" lon="0.70324">
        <ele>80</ele>
        <time>2025-12-07T13:35:06.148Z</time>
      </trkpt>
      <trkpt lat="44.17862" lon="0.70321">
        <ele>80</ele>
        <time>2025-12-07T13:35:09.148Z</time>
      </trkpt>
      <trkpt lat="44.17872" lon="0.70316">
        <ele>80</ele>
        <time>2025-12-07T13:35:17.148Z</time>
      </trkpt>
      <trkpt lat="44.17873" lon="0.70313">
        <ele>80</ele>
        <time>2025-12-07T13:35:19.148Z</time>
      </trkpt>
      <trkpt lat="44.17881" lon="0.7031">
        <ele>81</ele>
        <time>2025-12-07T13:35:25.148Z</time>
      </trkpt>
      <trkpt lat="44.17884" lon="0.70307">
        <ele>81</ele>
        <time>2025-12-07T13:35:29.148Z</time>
      </trkpt>
      <trkpt lat="44.17885" lon="0.70305">
        <ele>81</ele>
        <time>2025-12-07T13:35:31.148Z</time>
      </trkpt>
      <trkpt lat="44.17897" lon="0.70296">
        <ele>83</ele>
        <time>2025-12-07T13:35:43.148Z</time>
      </trkpt>
      <trkpt lat="44.17908" lon="0.70292">
        <ele>83</ele>
        <time>2025-12-07T13:35:52.148Z</time>
      </trkpt>
      <trkpt lat="44.1791" lon="0.70292">
        <ele>83</ele>
        <time>2025-12-07T13:35:53.148Z</time>
      </trkpt>
      <trkpt lat="44.17916" lon="0.70289">
        <ele>82</ele>
        <time>2025-12-07T13:35:57.148Z</time>
      </trkpt>
      <trkpt lat="44.17926" lon="0.70283">
        <ele>83</ele>
        <time>2025-12-07T13:36:07.148Z</time>
      </trkpt>
      <trkpt lat="44.1793" lon="0.70279">
        <ele>83</ele>
        <time>2025-12-07T13:36:11.148Z</time>
      </trkpt>
      <trkpt lat="44.17935" lon="0.70277">
        <ele>83</ele>
        <time>2025-12-07T13:36:17.148Z</time>
      </trkpt>
      <trkpt lat="44.1794" lon="0.70276">
        <ele>84</ele>
        <time>2025-12-07T13:36:22.148Z</time>
      </trkpt>
      <trkpt lat="44.17944" lon="0.70274">
        <ele>83</ele>
        <time>2025-12-07T13:36:26.148Z</time>
      </trkpt>
      <trkpt lat="44.17947" lon="0.70274">
        <ele>84</ele>
        <time>2025-12-07T13:36:30.148Z</time>
      </trkpt>
      <trkpt lat="44.17951" lon="0.70276">
        <ele>85</ele>
        <time>2025-12-07T13:36:38.148Z</time>
      </trkpt>
      <trkpt lat="44.17956" lon="0.70276">
        <ele>86</ele>
        <time>2025-12-07T13:36:42.148Z</time>
      </trkpt>
      <trkpt lat="44.17971" lon="0.70286">
        <ele>89</ele>
        <time>2025-12-07T13:36:56.148Z</time>
      </trkpt>
      <trkpt lat="44.17988" lon="0.70292">
        <ele>91</ele>
        <time>2025-12-07T13:37:06.148Z</time>
      </trkpt>
      <trkpt lat="44.17991" lon="0.70292">
        <ele>91</ele>
        <time>2025-12-07T13:37:08.148Z</time>
      </trkpt>
      <trkpt lat="44.1802" lon="0.70305">
        <ele>91</ele>
        <time>2025-12-07T13:37:32.148Z</time>
      </trkpt>
      <trkpt lat="44.18027" lon="0.70313">
        <ele>95</ele>
        <time>2025-12-07T13:37:40.148Z</time>
      </trkpt>
      <trkpt lat="44.18037" lon="0.70319">
        <ele>93</ele>
        <time>2025-12-07T13:37:48.148Z</time>
      </trkpt>
      <trkpt lat="44.1804" lon="0.70323">
        <ele>93</ele>
        <time>2025-12-07T13:37:52.148Z</time>
      </trkpt>
      <trkpt lat="44.18047" lon="0.70328">
        <ele>93</ele>
        <time>2025-12-07T13:37:58.148Z</time>
      </trkpt>
      <trkpt lat="44.18049" lon="0.70332">
        <ele>92</ele>
        <time>2025-12-07T13:38:02.148Z</time>
      </trkpt>
      <trkpt lat="44.18056" lon="0.70343">
        <ele>90</ele>
        <time>2025-12-07T13:38:10.148Z</time>
      </trkpt>
      <trkpt lat="44.18062" lon="0.70358">
        <ele>89</ele>
        <time>2025-12-07T13:38:20.148Z</time>
      </trkpt>
      <trkpt lat="44.18062" lon="0.70364">
        <ele>89</ele>
        <time>2025-12-07T13:38:24.148Z</time>
      </trkpt>
      <trkpt lat="44.18067" lon="0.70373">
        <ele>90</ele>
        <time>2025-12-07T13:38:32.148Z</time>
      </trkpt>
      <trkpt lat="44.18075" lon="0.70381">
        <ele>92</ele>
        <time>2025-12-07T13:38:48.148Z</time>
      </trkpt>
      <trkpt lat="44.18077" lon="0.70385">
        <ele>91</ele>
        <time>2025-12-07T13:38:56.148Z</time>
      </trkpt>
      <trkpt lat="44.18076" lon="0.70384">
        <ele>92</ele>
        <time>2025-12-07T13:39:04.148Z</time>
      </trkpt>
      <trkpt lat="44.18076" lon="0.70386">
        <ele>91</ele>
        <time>2025-12-07T13:39:12.148Z</time>
      </trkpt>
      <trkpt lat="44.18074" lon="0.70385">
        <ele>88</ele>
        <time>2025-12-07T13:39:20.148Z</time>
      </trkpt>
      <trkpt lat="44.18074" lon="0.70385">
        <ele>87</ele>
        <time>2025-12-07T13:39:26.148Z</time>
      </trkpt>
      <trkpt lat="44.18073" lon="0.70385">
        <ele>93</ele>
        <time>2025-12-07T13:39:42.148Z</time>
      </trkpt>
      <trkpt lat="44.18073" lon="0.70385">
        <ele>93</ele>
        <time>2025-12-07T13:39:46.148Z</time>
      </trkpt>
      <trkpt lat="44.18075" lon="0.70387">
        <ele>91</ele>
        <time>2025-12-07T13:40:18.148Z</time>
      </trkpt>
      <trkpt lat="44.18076" lon="0.70386">
        <ele>91</ele>
        <time>2025-12-07T13:40:34.148Z</time>
      </trkpt>
      <trkpt lat="44.18075" lon="0.70389">
        <ele>99</ele>
        <time>2025-12-07T13:41:06.148Z</time>
      </trkpt>
      <trkpt lat="44.18073" lon="0.70389">
        <ele>91</ele>
        <time>2025-12-07T13:41:18.148Z</time>
      </trkpt>
      <trkpt lat="44.18075" lon="0.70397">
        <ele>90</ele>
        <time>2025-12-07T13:41:26.148Z</time>
      </trkpt>
      <trkpt lat="44.18074" lon="0.70409">
        <ele>90</ele>
        <time>2025-12-07T13:41:34.148Z</time>
      </trkpt>
      <trkpt lat="44.18073" lon="0.70415">
        <ele>90</ele>
        <time>2025-12-07T13:41:38.148Z</time>
      </trkpt>
      <trkpt lat="44.18074" lon="0.70421">
        <ele>90</ele>
        <time>2025-12-07T13:41:42.148Z</time>
      </trkpt>
      <trkpt lat="44.18076" lon="0.70452">
        <ele>92</ele>
        <time>2025-12-07T13:42:02.148Z</time>
      </trkpt>
      <trkpt lat="44.18077" lon="0.70459">
        <ele>93</ele>
        <time>2025-12-07T13:42:06.148Z</time>
      </trkpt>
      <trkpt lat="44.18077" lon="0.70477">
        <ele>94</ele>
        <time>2025-12-07T13:42:18.148Z</time>
      </trkpt>
      <trkpt lat="44.18076" lon="0.70501">
        <ele>97</ele>
        <time>2025-12-07T13:42:34.148Z</time>
      </trkpt>
      <trkpt lat="44.18077" lon="0.70506">
        <ele>97</ele>
        <time>2025-12-07T13:42:38.148Z</time>
      </trkpt>
      <trkpt lat="44.18078" lon="0.70517">
        <ele>99</ele>
        <time>2025-12-07T13:42:46.148Z</time>
      </trkpt>
      <trkpt lat="44.18079" lon="0.70527">
        <ele>101</ele>
        <time>2025-12-07T13:42:54.148Z</time>
      </trkpt>
      <trkpt lat="44.18079" lon="0.70535">
        <ele>100</ele>
        <time>2025-12-07T13:43:02.148Z</time>
      </trkpt>
      <trkpt lat="44.1808" lon="0.70537">
        <ele>100</ele>
        <time>2025-12-07T13:43:04.148Z</time>
      </trkpt>
      <trkpt lat="44.18079" lon="0.70542">
        <ele>101</ele>
        <time>2025-12-07T13:43:08.148Z</time>
      </trkpt>
      <trkpt lat="44.18078" lon="0.70546">
        <ele>101</ele>
        <time>2025-12-07T13:43:12.148Z</time>
      </trkpt>
      <trkpt lat="44.18075" lon="0.7055">
        <ele>100</ele>
        <time>2025-12-07T13:43:16.148Z</time>
      </trkpt>
      <trkpt lat="44.18066" lon="0.70569">
        <ele>103</ele>
        <time>2025-12-07T13:43:32.148Z</time>
      </trkpt>
      <trkpt lat="44.18065" lon="0.70573">
        <ele>105</ele>
        <time>2025-12-07T13:43:36.148Z</time>
      </trkpt>
      <trkpt lat="44.18059" lon="0.70586">
        <ele>104</ele>
        <time>2025-12-07T13:43:48.148Z</time>
      </trkpt>
      <trkpt lat="44.18053" lon="0.70595">
        <ele>104</ele>
        <time>2025-12-07T13:43:56.148Z</time>
      </trkpt>
      <trkpt lat="44.18049" lon="0.70606">
        <ele>105</ele>
        <time>2025-12-07T13:44:04.148Z</time>
      </trkpt>
      <trkpt lat="44.18042" lon="0.70629">
        <ele>105</ele>
        <time>2025-12-07T13:44:20.148Z</time>
      </trkpt>
      <trkpt lat="44.18042" lon="0.70647">
        <ele>108</ele>
        <time>2025-12-07T13:44:32.148Z</time>
      </trkpt>
      <trkpt lat="44.18049" lon="0.70697">
        <ele>113</ele>
        <time>2025-12-07T13:45:04.148Z</time>
      </trkpt>
      <trkpt lat="44.18052" lon="0.70722">
        <ele>114</ele>
        <time>2025-12-07T13:45:20.148Z</time>
      </trkpt>
      <trkpt lat="44.18056" lon="0.70746">
        <ele>115</ele>
        <time>2025-12-07T13:45:36.148Z</time>
      </trkpt>
      <trkpt lat="44.18061" lon="0.70756">
        <ele>118</ele>
        <time>2025-12-07T13:45:44.148Z</time>
      </trkpt>
      <trkpt lat="44.1806" lon="0.70759">
        <ele>119</ele>
        <time>2025-12-07T13:45:46.148Z</time>
      </trkpt>
      <trkpt lat="44.18066" lon="0.70778">
        <ele>120</ele>
        <time>2025-12-07T13:46:00.148Z</time>
      </trkpt>
      <trkpt lat="44.18066" lon="0.70785">
        <ele>122</ele>
        <time>2025-12-07T13:46:04.148Z</time>
      </trkpt>
      <trkpt lat="44.1806" lon="0.70808">
        <ele>124</ele>
        <time>2025-12-07T13:46:20.148Z</time>
      </trkpt>
      <trkpt lat="44.1806" lon="0.70813">
        <ele>124</ele>
        <time>2025-12-07T13:46:24.148Z</time>
      </trkpt>
      <trkpt lat="44.18056" lon="0.70824">
        <ele>125</ele>
        <time>2025-12-07T13:46:32.148Z</time>
      </trkpt>
      <trkpt lat="44.18054" lon="0.70828">
        <ele>126</ele>
        <time>2025-12-07T13:46:36.148Z</time>
      </trkpt>
      <trkpt lat="44.18053" lon="0.70839">
        <ele>126</ele>
        <time>2025-12-07T13:46:44.148Z</time>
      </trkpt>
      <trkpt lat="44.18051" lon="0.70844">
        <ele>126</ele>
        <time>2025-12-07T13:46:48.148Z</time>
      </trkpt>
      <trkpt lat="44.18049" lon="0.70855">
        <ele>127</ele>
        <time>2025-12-07T13:46:56.148Z</time>
      </trkpt>
      <trkpt lat="44.18046" lon="0.70864">
        <ele>128</ele>
        <time>2025-12-07T13:47:04.148Z</time>
      </trkpt>
      <trkpt lat="44.18046" lon="0.70869">
        <ele>128</ele>
        <time>2025-12-07T13:47:08.148Z</time>
      </trkpt>
      <trkpt lat="44.18043" lon="0.70874">
        <ele>128</ele>
        <time>2025-12-07T13:47:12.148Z</time>
      </trkpt>
      <trkpt lat="44.18043" lon="0.70886">
        <ele>127</ele>
        <time>2025-12-07T13:47:20.148Z</time>
      </trkpt>
      <trkpt lat="44.18045" lon="0.70897">
        <ele>128</ele>
        <time>2025-12-07T13:47:28.148Z</time>
      </trkpt>
      <trkpt lat="44.18047" lon="0.70915">
        <ele>129</ele>
        <time>2025-12-07T13:47:40.148Z</time>
      </trkpt>
      <trkpt lat="44.18051" lon="0.70928">
        <ele>131</ele>
        <time>2025-12-07T13:47:48.148Z</time>
      </trkpt>
      <trkpt lat="44.18055" lon="0.70946">
        <ele>132</ele>
        <time>2025-12-07T13:48:00.148Z</time>
      </trkpt>
      <trkpt lat="44.18055" lon="0.70957">
        <ele>133</ele>
        <time>2025-12-07T13:48:08.148Z</time>
      </trkpt>
      <trkpt lat="44.18056" lon="0.70969">
        <ele>134</ele>
        <time>2025-12-07T13:48:16.148Z</time>
      </trkpt>
      <trkpt lat="44.18058" lon="0.70979">
        <ele>137</ele>
        <time>2025-12-07T13:48:24.148Z</time>
      </trkpt>
      <trkpt lat="44.18058" lon="0.70985">
        <ele>137</ele>
        <time>2025-12-07T13:48:28.148Z</time>
      </trkpt>
      <trkpt lat="44.18063" lon="0.71034">
        <ele>134</ele>
        <time>2025-12-07T13:48:58.148Z</time>
      </trkpt>
      <trkpt lat="44.18066" lon="0.71043">
        <ele>135</ele>
        <time>2025-12-07T13:49:04.148Z</time>
      </trkpt>
      <trkpt lat="44.18066" lon="0.71057">
        <ele>134</ele>
        <time>2025-12-07T13:49:12.148Z</time>
      </trkpt>
      <trkpt lat="44.18072" lon="0.71082">
        <ele>134</ele>
        <time>2025-12-07T13:49:28.148Z</time>
      </trkpt>
      <trkpt lat="44.1808" lon="0.71107">
        <ele>135</ele>
        <time>2025-12-07T13:49:44.148Z</time>
      </trkpt>
      <trkpt lat="44.18087" lon="0.71118">
        <ele>136</ele>
        <time>2025-12-07T13:49:52.148Z</time>
      </trkpt>
      <trkpt lat="44.18092" lon="0.71129">
        <ele>136</ele>
        <time>2025-12-07T13:50:00.148Z</time>
      </trkpt>
      <trkpt lat="44.18096" lon="0.71135">
        <ele>136</ele>
        <time>2025-12-07T13:50:06.148Z</time>
      </trkpt>
      <trkpt lat="44.18097" lon="0.71139">
        <ele>137</ele>
        <time>2025-12-07T13:50:10.148Z</time>
      </trkpt>
      <trkpt lat="44.18104" lon="0.71145">
        <ele>137</ele>
        <time>2025-12-07T13:50:16.148Z</time>
      </trkpt>
      <trkpt lat="44.18107" lon="0.7115">
        <ele>137</ele>
        <time>2025-12-07T13:50:20.148Z</time>
      </trkpt>
      <trkpt lat="44.18109" lon="0.71156">
        <ele>137</ele>
        <time>2025-12-07T13:50:24.148Z</time>
      </trkpt>
      <trkpt lat="44.18113" lon="0.71161">
        <ele>137</ele>
        <time>2025-12-07T13:50:28.148Z</time>
      </trkpt>
      <trkpt lat="44.18115" lon="0.71166">
        <ele>136</ele>
        <time>2025-12-07T13:50:32.148Z</time>
      </trkpt>
      <trkpt lat="44.18128" lon="0.71183">
        <ele>137</ele>
        <time>2025-12-07T13:50:48.148Z</time>
      </trkpt>
      <trkpt lat="44.18131" lon="0.71186">
        <ele>137</ele>
        <time>2025-12-07T13:50:52.148Z</time>
      </trkpt>
      <trkpt lat="44.18132" lon="0.71187">
        <ele>137</ele>
        <time>2025-12-07T13:50:54.148Z</time>
      </trkpt>
      <trkpt lat="44.18133" lon="0.71187">
        <ele>137</ele>
        <time>2025-12-07T13:50:56.148Z</time>
      </trkpt>
      <trkpt lat="44.18142" lon="0.71198">
        <ele>137</ele>
        <time>2025-12-07T13:51:08.148Z</time>
      </trkpt>
      <trkpt lat="44.18144" lon="0.712">
        <ele>138</ele>
        <time>2025-12-07T13:51:16.148Z</time>
      </trkpt>
      <trkpt lat="44.18145" lon="0.71199">
        <ele>140</ele>
        <time>2025-12-07T13:51:32.148Z</time>
      </trkpt>
      <trkpt lat="44.18144" lon="0.71201">
        <ele>137</ele>
        <time>2025-12-07T13:51:56.148Z</time>
      </trkpt>
      <trkpt lat="44.18144" lon="0.71201">
        <ele>135</ele>
        <time>2025-12-07T13:52:12.148Z</time>
      </trkpt>
      <trkpt lat="44.18143" lon="0.71203">
        <ele>134</ele>
        <time>2025-12-07T13:52:20.148Z</time>
      </trkpt>
      <trkpt lat="44.18143" lon="0.71203">
        <ele>136</ele>
        <time>2025-12-07T13:52:28.148Z</time>
      </trkpt>
      <trkpt lat="44.18134" lon="0.71192">
        <ele>136</ele>
        <time>2025-12-07T13:53:00.148Z</time>
      </trkpt>
      <trkpt lat="44.18134" lon="0.71192">
        <ele>136</ele>
        <time>2025-12-07T13:53:16.148Z</time>
      </trkpt>
      <trkpt lat="44.1814" lon="0.71195">
        <ele>133</ele>
        <time>2025-12-07T13:53:40.148Z</time>
      </trkpt>
      <trkpt lat="44.18142" lon="0.71197">
        <ele>133</ele>
        <time>2025-12-07T13:53:42.148Z</time>
      </trkpt>
      <trkpt lat="44.18143" lon="0.712">
        <ele>134</ele>
        <time>2025-12-07T13:53:50.148Z</time>
      </trkpt>
      <trkpt lat="44.18142" lon="0.712">
        <ele>135</ele>
        <time>2025-12-07T13:54:02.148Z</time>
      </trkpt>
      <trkpt lat="44.18144" lon="0.71201">
        <ele>136</ele>
        <time>2025-12-07T13:54:18.148Z</time>
      </trkpt>
      <trkpt lat="44.18155" lon="0.71209">
        <ele>136</ele>
        <time>2025-12-07T13:54:30.148Z</time>
      </trkpt>
      <trkpt lat="44.18159" lon="0.71214">
        <ele>136</ele>
        <time>2025-12-07T13:54:34.148Z</time>
      </trkpt>
      <trkpt lat="44.18164" lon="0.71218">
        <ele>137</ele>
        <time>2025-12-07T13:54:38.148Z</time>
      </trkpt>
      <trkpt lat="44.18167" lon="0.71222">
        <ele>138</ele>
        <time>2025-12-07T13:54:42.148Z</time>
      </trkpt>
      <trkpt lat="44.18169" lon="0.71224">
        <ele>138</ele>
        <time>2025-12-07T13:54:44.148Z</time>
      </trkpt>
      <trkpt lat="44.18172" lon="0.71229">
        <ele>138</ele>
        <time>2025-12-07T13:54:48.148Z</time>
      </trkpt>
      <trkpt lat="44.1818" lon="0.71237">
        <ele>137</ele>
        <time>2025-12-07T13:54:56.148Z</time>
      </trkpt>
      <trkpt lat="44.18188" lon="0.71245">
        <ele>137</ele>
        <time>2025-12-07T13:55:04.148Z</time>
      </trkpt>
      <trkpt lat="44.18197" lon="0.71253">
        <ele>135</ele>
        <time>2025-12-07T13:55:12.148Z</time>
      </trkpt>
      <trkpt lat="44.18204" lon="0.71262">
        <ele>135</ele>
        <time>2025-12-07T13:55:20.148Z</time>
      </trkpt>
      <trkpt lat="44.18212" lon="0.71274">
        <ele>135</ele>
        <time>2025-12-07T13:55:28.148Z</time>
      </trkpt>
      <trkpt lat="44.18218" lon="0.71286">
        <ele>133</ele>
        <time>2025-12-07T13:55:36.148Z</time>
      </trkpt>
      <trkpt lat="44.18223" lon="0.71298">
        <ele>132</ele>
        <time>2025-12-07T13:55:44.148Z</time>
      </trkpt>
      <trkpt lat="44.18227" lon="0.71318">
        <ele>132</ele>
        <time>2025-12-07T13:55:56.148Z</time>
      </trkpt>
      <trkpt lat="44.18228" lon="0.71325">
        <ele>132</ele>
        <time>2025-12-07T13:56:00.148Z</time>
      </trkpt>
      <trkpt lat="44.18235" lon="0.71348">
        <ele>133</ele>
        <time>2025-12-07T13:56:16.148Z</time>
      </trkpt>
      <trkpt lat="44.18235" lon="0.71354">
        <ele>132</ele>
        <time>2025-12-07T13:56:20.148Z</time>
      </trkpt>
      <trkpt lat="44.18238" lon="0.71365">
        <ele>132</ele>
        <time>2025-12-07T13:56:28.148Z</time>
      </trkpt>
      <trkpt lat="44.18245" lon="0.71376">
        <ele>131</ele>
        <time>2025-12-07T13:56:36.148Z</time>
      </trkpt>
      <trkpt lat="44.18253" lon="0.71386">
        <ele>135</ele>
        <time>2025-12-07T13:56:44.148Z</time>
      </trkpt>
      <trkpt lat="44.18256" lon="0.71388">
        <ele>137</ele>
        <time>2025-12-07T13:56:46.148Z</time>
      </trkpt>
      <trkpt lat="44.18261" lon="0.71394">
        <ele>139</ele>
        <time>2025-12-07T13:56:50.148Z</time>
      </trkpt>
      <trkpt lat="44.18262" lon="0.71397">
        <ele>139</ele>
        <time>2025-12-07T13:56:52.148Z</time>
      </trkpt>
      <trkpt lat="44.18269" lon="0.71407">
        <ele>139</ele>
        <time>2025-12-07T13:57:00.148Z</time>
      </trkpt>
      <trkpt lat="44.1827" lon="0.71412">
        <ele>139</ele>
        <time>2025-12-07T13:57:04.148Z</time>
      </trkpt>
      <trkpt lat="44.18281" lon="0.71424">
        <ele>143</ele>
        <time>2025-12-07T13:57:16.148Z</time>
      </trkpt>
      <trkpt lat="44.18291" lon="0.71435">
        <ele>144</ele>
        <time>2025-12-07T13:57:26.148Z</time>
      </trkpt>
      <trkpt lat="44.18293" lon="0.71443">
        <ele>141</ele>
        <time>2025-12-07T13:57:32.148Z</time>
      </trkpt>
      <trkpt lat="44.18297" lon="0.71445">
        <ele>141</ele>
        <time>2025-12-07T13:57:34.148Z</time>
      </trkpt>
      <trkpt lat="44.18303" lon="0.71452">
        <ele>141</ele>
        <time>2025-12-07T13:57:40.148Z</time>
      </trkpt>
      <trkpt lat="44.18311" lon="0.71455">
        <ele>141</ele>
        <time>2025-12-07T13:57:48.148Z</time>
      </trkpt>
      <trkpt lat="44.18321" lon="0.71457">
        <ele>138</ele>
        <time>2025-12-07T13:57:58.148Z</time>
      </trkpt>
      <trkpt lat="44.18321" lon="0.71459">
        <ele>137</ele>
        <time>2025-12-07T13:58:06.148Z</time>
      </trkpt>
      <trkpt lat="44.1832" lon="0.71459">
        <ele>138</ele>
        <time>2025-12-07T13:58:08.148Z</time>
      </trkpt>
      <trkpt lat="44.1832" lon="0.71459">
        <ele>138</ele>
        <time>2025-12-07T13:58:10.148Z</time>
      </trkpt>
      <trkpt lat="44.18319" lon="0.71459">
        <ele>141</ele>
        <time>2025-12-07T13:58:18.148Z</time>
      </trkpt>
      <trkpt lat="44.1832" lon="0.71457">
        <ele>143</ele>
        <time>2025-12-07T13:58:30.148Z</time>
      </trkpt>
      <trkpt lat="44.18319" lon="0.71452">
        <ele>144</ele>
        <time>2025-12-07T13:58:54.148Z</time>
      </trkpt>
      <trkpt lat="44.18322" lon="0.71454">
        <ele>139</ele>
        <time>2025-12-07T13:59:10.148Z</time>
      </trkpt>
      <trkpt lat="44.18322" lon="0.71453">
        <ele>138</ele>
        <time>2025-12-07T13:59:14.148Z</time>
      </trkpt>
      <trkpt lat="44.18319" lon="0.71454">
        <ele>136</ele>
        <time>2025-12-07T13:59:22.148Z</time>
      </trkpt>
      <trkpt lat="44.18319" lon="0.71456">
        <ele>137</ele>
        <time>2025-12-07T13:59:30.148Z</time>
      </trkpt>
      <trkpt lat="44.18316" lon="0.71455">
        <ele>139</ele>
        <time>2025-12-07T13:59:34.148Z</time>
      </trkpt>
      <trkpt lat="44.18316" lon="0.71455">
        <ele>144</ele>
        <time>2025-12-07T13:59:50.148Z</time>
      </trkpt>
      <trkpt lat="44.18317" lon="0.71455">
        <ele>142</ele>
        <time>2025-12-07T13:59:58.148Z</time>
      </trkpt>
      <trkpt lat="44.18319" lon="0.71453">
        <ele>138</ele>
        <time>2025-12-07T14:00:54.148Z</time>
      </trkpt>
      <trkpt lat="44.18321" lon="0.71454">
        <ele>137</ele>
        <time>2025-12-07T14:00:58.148Z</time>
      </trkpt>
      <trkpt lat="44.18325" lon="0.71457">
        <ele>137</ele>
        <time>2025-12-07T14:01:02.148Z</time>
      </trkpt>
      <trkpt lat="44.18329" lon="0.7146">
        <ele>136</ele>
        <time>2025-12-07T14:01:06.148Z</time>
      </trkpt>
      <trkpt lat="44.18334" lon="0.7146">
        <ele>135</ele>
        <time>2025-12-07T14:01:10.148Z</time>
      </trkpt>
      <trkpt lat="44.18338" lon="0.71459">
        <ele>135</ele>
        <time>2025-12-07T14:01:14.148Z</time>
      </trkpt>
      <trkpt lat="44.18347" lon="0.71454">
        <ele>135</ele>
        <time>2025-12-07T14:01:22.148Z</time>
      </trkpt>
      <trkpt lat="44.18353" lon="0.71452">
        <ele>136</ele>
        <time>2025-12-07T14:01:26.148Z</time>
      </trkpt>
      <trkpt lat="44.18357" lon="0.7145">
        <ele>135</ele>
        <time>2025-12-07T14:01:30.148Z</time>
      </trkpt>
      <trkpt lat="44.18367" lon="0.71449">
        <ele>135</ele>
        <time>2025-12-07T14:01:38.148Z</time>
      </trkpt>
      <trkpt lat="44.18375" lon="0.7145">
        <ele>135</ele>
        <time>2025-12-07T14:01:46.148Z</time>
      </trkpt>
      <trkpt lat="44.18376" lon="0.71448">
        <ele>135</ele>
        <time>2025-12-07T14:01:48.148Z</time>
      </trkpt>
      <trkpt lat="44.18385" lon="0.7145">
        <ele>137</ele>
        <time>2025-12-07T14:01:56.148Z</time>
      </trkpt>
      <trkpt lat="44.18403" lon="0.71463">
        <ele>136</ele>
        <time>2025-12-07T14:02:12.148Z</time>
      </trkpt>
      <trkpt lat="44.18416" lon="0.71475">
        <ele>136</ele>
        <time>2025-12-07T14:02:24.148Z</time>
      </trkpt>
      <trkpt lat="44.18419" lon="0.71482">
        <ele>137</ele>
        <time>2025-12-07T14:02:28.148Z</time>
      </trkpt>
      <trkpt lat="44.18424" lon="0.71488">
        <ele>137</ele>
        <time>2025-12-07T14:02:32.148Z</time>
      </trkpt>
      <trkpt lat="44.18428" lon="0.71495">
        <ele>137</ele>
        <time>2025-12-07T14:02:36.148Z</time>
      </trkpt>
      <trkpt lat="44.18431" lon="0.71502">
        <ele>137</ele>
        <time>2025-12-07T14:02:40.148Z</time>
      </trkpt>
      <trkpt lat="44.18445" lon="0.71526">
        <ele>136</ele>
        <time>2025-12-07T14:02:56.148Z</time>
      </trkpt>
      <trkpt lat="44.18452" lon="0.71534">
        <ele>137</ele>
        <time>2025-12-07T14:03:02.148Z</time>
      </trkpt>
      <trkpt lat="44.18454" lon="0.7154">
        <ele>137</ele>
        <time>2025-12-07T14:03:06.148Z</time>
      </trkpt>
      <trkpt lat="44.18465" lon="0.71555">
        <ele>137</ele>
        <time>2025-12-07T14:03:18.148Z</time>
      </trkpt>
      <trkpt lat="44.18466" lon="0.71558">
        <ele>137</ele>
        <time>2025-12-07T14:03:20.148Z</time>
      </trkpt>
      <trkpt lat="44.18469" lon="0.71561">
        <ele>137</ele>
        <time>2025-12-07T14:03:24.148Z</time>
      </trkpt>
      <trkpt lat="44.18472" lon="0.71566">
        <ele>138</ele>
        <time>2025-12-07T14:03:28.148Z</time>
      </trkpt>
      <trkpt lat="44.18479" lon="0.71575">
        <ele>141</ele>
        <time>2025-12-07T14:03:36.148Z</time>
      </trkpt>
      <trkpt lat="44.18488" lon="0.71583">
        <ele>139</ele>
        <time>2025-12-07T14:03:44.148Z</time>
      </trkpt>
      <trkpt lat="44.18494" lon="0.71587">
        <ele>139</ele>
        <time>2025-12-07T14:03:48.148Z</time>
      </trkpt>
      <trkpt lat="44.18502" lon="0.71595">
        <ele>140</ele>
        <time>2025-12-07T14:03:56.148Z</time>
      </trkpt>
      <trkpt lat="44.18513" lon="0.71607">
        <ele>139</ele>
        <time>2025-12-07T14:04:08.148Z</time>
      </trkpt>
      <trkpt lat="44.18517" lon="0.7161">
        <ele>140</ele>
        <time>2025-12-07T14:04:12.148Z</time>
      </trkpt>
      <trkpt lat="44.18533" lon="0.71626">
        <ele>139</ele>
        <time>2025-12-07T14:04:28.148Z</time>
      </trkpt>
      <trkpt lat="44.18546" lon="0.71636">
        <ele>141</ele>
        <time>2025-12-07T14:04:40.148Z</time>
      </trkpt>
      <trkpt lat="44.18548" lon="0.71639">
        <ele>141</ele>
        <time>2025-12-07T14:04:42.148Z</time>
      </trkpt>
      <trkpt lat="44.18554" lon="0.71642">
        <ele>142</ele>
        <time>2025-12-07T14:04:46.148Z</time>
      </trkpt>
      <trkpt lat="44.18558" lon="0.71647">
        <ele>142</ele>
        <time>2025-12-07T14:04:50.148Z</time>
      </trkpt>
      <trkpt lat="44.18565" lon="0.7166">
        <ele>140</ele>
        <time>2025-12-07T14:05:00.148Z</time>
      </trkpt>
      <trkpt lat="44.18566" lon="0.71666">
        <ele>140</ele>
        <time>2025-12-07T14:05:04.148Z</time>
      </trkpt>
      <trkpt lat="44.18565" lon="0.71667">
        <ele>139</ele>
        <time>2025-12-07T14:05:05.148Z</time>
      </trkpt>
      <trkpt lat="44.18569" lon="0.71673">
        <ele>140</ele>
        <time>2025-12-07T14:05:09.148Z</time>
      </trkpt>
      <trkpt lat="44.18571" lon="0.71679">
        <ele>139</ele>
        <time>2025-12-07T14:05:13.148Z</time>
      </trkpt>
      <trkpt lat="44.18578" lon="0.71717">
        <ele>140</ele>
        <time>2025-12-07T14:05:37.148Z</time>
      </trkpt>
      <trkpt lat="44.18581" lon="0.71723">
        <ele>140</ele>
        <time>2025-12-07T14:05:41.148Z</time>
      </trkpt>
      <trkpt lat="44.18593" lon="0.71777">
        <ele>142</ele>
        <time>2025-12-07T14:06:17.148Z</time>
      </trkpt>
      <trkpt lat="44.18598" lon="0.71817">
        <ele>144</ele>
        <time>2025-12-07T14:06:41.148Z</time>
      </trkpt>
      <trkpt lat="44.186" lon="0.71845">
        <ele>144</ele>
        <time>2025-12-07T14:06:57.148Z</time>
      </trkpt>
      <trkpt lat="44.18598" lon="0.71881">
        <ele>145</ele>
        <time>2025-12-07T14:07:17.148Z</time>
      </trkpt>
      <trkpt lat="44.18599" lon="0.71888">
        <ele>145</ele>
        <time>2025-12-07T14:07:21.148Z</time>
      </trkpt>
      <trkpt lat="44.18597" lon="0.71991">
        <ele>144</ele>
        <time>2025-12-07T14:08:21.148Z</time>
      </trkpt>
      <trkpt lat="44.18596" lon="0.71995">
        <ele>145</ele>
        <time>2025-12-07T14:08:23.148Z</time>
      </trkpt>
      <trkpt lat="44.18595" lon="0.71997">
        <ele>145</ele>
        <time>2025-12-07T14:08:25.148Z</time>
      </trkpt>
      <trkpt lat="44.18597" lon="0.72008">
        <ele>145</ele>
        <time>2025-12-07T14:08:33.148Z</time>
      </trkpt>
      <trkpt lat="44.18595" lon="0.72035">
        <ele>146</ele>
        <time>2025-12-07T14:08:49.148Z</time>
      </trkpt>
      <trkpt lat="44.18596" lon="0.72045">
        <ele>146</ele>
        <time>2025-12-07T14:08:55.148Z</time>
      </trkpt>
      <trkpt lat="44.18599" lon="0.72058">
        <ele>146</ele>
        <time>2025-12-07T14:09:01.148Z</time>
      </trkpt>
      <trkpt lat="44.186" lon="0.72064">
        <ele>145</ele>
        <time>2025-12-07T14:09:05.148Z</time>
      </trkpt>
      <trkpt lat="44.18604" lon="0.72085">
        <ele>145</ele>
        <time>2025-12-07T14:09:17.148Z</time>
      </trkpt>
      <trkpt lat="44.18605" lon="0.72093">
        <ele>145</ele>
        <time>2025-12-07T14:09:21.148Z</time>
      </trkpt>
      <trkpt lat="44.18608" lon="0.72107">
        <ele>146</ele>
        <time>2025-12-07T14:09:29.148Z</time>
      </trkpt>
      <trkpt lat="44.18612" lon="0.72112">
        <ele>147</ele>
        <time>2025-12-07T14:09:33.148Z</time>
      </trkpt>
      <trkpt lat="44.18613" lon="0.72118">
        <ele>148</ele>
        <time>2025-12-07T14:09:37.148Z</time>
      </trkpt>
      <trkpt lat="44.18621" lon="0.72144">
        <ele>150</ele>
        <time>2025-12-07T14:09:53.148Z</time>
      </trkpt>
      <trkpt lat="44.18628" lon="0.72179">
        <ele>148</ele>
        <time>2025-12-07T14:10:13.148Z</time>
      </trkpt>
      <trkpt lat="44.18628" lon="0.72193">
        <ele>146</ele>
        <time>2025-12-07T14:10:21.148Z</time>
      </trkpt>
      <trkpt lat="44.18627" lon="0.72201">
        <ele>145</ele>
        <time>2025-12-07T14:10:25.148Z</time>
      </trkpt>
      <trkpt lat="44.18633" lon="0.7223">
        <ele>144</ele>
        <time>2025-12-07T14:10:41.148Z</time>
      </trkpt>
      <trkpt lat="44.18639" lon="0.7225">
        <ele>143</ele>
        <time>2025-12-07T14:10:53.148Z</time>
      </trkpt>
      <trkpt lat="44.18646" lon="0.72264">
        <ele>142</ele>
        <time>2025-12-07T14:11:01.148Z</time>
      </trkpt>
      <trkpt lat="44.18653" lon="0.72274">
        <ele>143</ele>
        <time>2025-12-07T14:11:09.148Z</time>
      </trkpt>
      <trkpt lat="44.18662" lon="0.72289">
        <ele>141</ele>
        <time>2025-12-07T14:11:21.148Z</time>
      </trkpt>
      <trkpt lat="44.18675" lon="0.72304">
        <ele>143</ele>
        <time>2025-12-07T14:11:36.148Z</time>
      </trkpt>
      <trkpt lat="44.18676" lon="0.72305">
        <ele>144</ele>
        <time>2025-12-07T14:11:37.148Z</time>
      </trkpt>
      <trkpt lat="44.18684" lon="0.72315">
        <ele>144</ele>
        <time>2025-12-07T14:11:45.148Z</time>
      </trkpt>
      <trkpt lat="44.18702" lon="0.7233">
        <ele>144</ele>
        <time>2025-12-07T14:12:01.148Z</time>
      </trkpt>
      <trkpt lat="44.18716" lon="0.7235">
        <ele>138</ele>
        <time>2025-12-07T14:12:17.148Z</time>
      </trkpt>
      <trkpt lat="44.18719" lon="0.72356">
        <ele>137</ele>
        <time>2025-12-07T14:12:21.148Z</time>
      </trkpt>
      <trkpt lat="44.18721" lon="0.72367">
        <ele>136</ele>
        <time>2025-12-07T14:12:27.148Z</time>
      </trkpt>
      <trkpt lat="44.18719" lon="0.72374">
        <ele>134</ele>
        <time>2025-12-07T14:12:31.148Z</time>
      </trkpt>
      <trkpt lat="44.18712" lon="0.72382">
        <ele>134</ele>
        <time>2025-12-07T14:12:39.148Z</time>
      </trkpt>
      <trkpt lat="44.18708" lon="0.72384">
        <ele>134</ele>
        <time>2025-12-07T14:12:43.148Z</time>
      </trkpt>
      <trkpt lat="44.18706" lon="0.72386">
        <ele>134</ele>
        <time>2025-12-07T14:12:45.148Z</time>
      </trkpt>
      <trkpt lat="44.18704" lon="0.72388">
        <ele>133</ele>
        <time>2025-12-07T14:12:47.148Z</time>
      </trkpt>
      <trkpt lat="44.18703" lon="0.72387">
        <ele>133</ele>
        <time>2025-12-07T14:12:55.148Z</time>
      </trkpt>
      <trkpt lat="44.18687" lon="0.72393">
        <ele>132</ele>
        <time>2025-12-07T14:13:11.148Z</time>
      </trkpt>
      <trkpt lat="44.18682" lon="0.72393">
        <ele>132</ele>
        <time>2025-12-07T14:13:15.148Z</time>
      </trkpt>
      <trkpt lat="44.18673" lon="0.72397">
        <ele>134</ele>
        <time>2025-12-07T14:13:23.148Z</time>
      </trkpt>
      <trkpt lat="44.18664" lon="0.72401">
        <ele>136</ele>
        <time>2025-12-07T14:13:31.148Z</time>
      </trkpt>
      <trkpt lat="44.1865" lon="0.72406">
        <ele>137</ele>
        <time>2025-12-07T14:13:41.148Z</time>
      </trkpt>
      <trkpt lat="44.18648" lon="0.72408">
        <ele>137</ele>
        <time>2025-12-07T14:13:43.148Z</time>
      </trkpt>
      <trkpt lat="44.18643" lon="0.72415">
        <ele>135</ele>
        <time>2025-12-07T14:13:49.148Z</time>
      </trkpt>
      <trkpt lat="44.18644" lon="0.72427">
        <ele>133</ele>
        <time>2025-12-07T14:13:57.148Z</time>
      </trkpt>
      <trkpt lat="44.18646" lon="0.72431">
        <ele>131</ele>
        <time>2025-12-07T14:14:01.148Z</time>
      </trkpt>
      <trkpt lat="44.18652" lon="0.72435">
        <ele>130</ele>
        <time>2025-12-07T14:14:05.148Z</time>
      </trkpt>
      <trkpt lat="44.18654" lon="0.72439">
        <ele>130</ele>
        <time>2025-12-07T14:14:09.148Z</time>
      </trkpt>
      <trkpt lat="44.18657" lon="0.72438">
        <ele>129</ele>
        <time>2025-12-07T14:14:13.148Z</time>
      </trkpt>
      <trkpt lat="44.18662" lon="0.72437">
        <ele>129</ele>
        <time>2025-12-07T14:14:17.148Z</time>
      </trkpt>
      <trkpt lat="44.1867" lon="0.72433">
        <ele>129</ele>
        <time>2025-12-07T14:14:25.148Z</time>
      </trkpt>
      <trkpt lat="44.1868" lon="0.72431">
        <ele>129</ele>
        <time>2025-12-07T14:14:33.148Z</time>
      </trkpt>
      <trkpt lat="44.18688" lon="0.72428">
        <ele>129</ele>
        <time>2025-12-07T14:14:41.148Z</time>
      </trkpt>
      <trkpt lat="44.18696" lon="0.72427">
        <ele>129</ele>
        <time>2025-12-07T14:14:47.148Z</time>
      </trkpt>
      <trkpt lat="44.18699" lon="0.72425">
        <ele>128</ele>
        <time>2025-12-07T14:14:49.148Z</time>
      </trkpt>
      <trkpt lat="44.18702" lon="0.72425">
        <ele>129</ele>
        <time>2025-12-07T14:14:50.148Z</time>
      </trkpt>
      <trkpt lat="44.18718" lon="0.72428">
        <ele>126</ele>
        <time>2025-12-07T14:15:02.148Z</time>
      </trkpt>
      <trkpt lat="44.18728" lon="0.72432">
        <ele>123</ele>
        <time>2025-12-07T14:15:10.148Z</time>
      </trkpt>
      <trkpt lat="44.18744" lon="0.72441">
        <ele>121</ele>
        <time>2025-12-07T14:15:22.148Z</time>
      </trkpt>
      <trkpt lat="44.18752" lon="0.7245">
        <ele>120</ele>
        <time>2025-12-07T14:15:30.148Z</time>
      </trkpt>
      <trkpt lat="44.18756" lon="0.72454">
        <ele>119</ele>
        <time>2025-12-07T14:15:34.148Z</time>
      </trkpt>
      <trkpt lat="44.18756" lon="0.72456">
        <ele>114</ele>
        <time>2025-12-07T14:15:50.148Z</time>
      </trkpt>
      <trkpt lat="44.18762" lon="0.72465">
        <ele>114</ele>
        <time>2025-12-07T14:15:58.148Z</time>
      </trkpt>
      <trkpt lat="44.18765" lon="0.72469">
        <ele>115</ele>
        <time>2025-12-07T14:16:02.148Z</time>
      </trkpt>
      <trkpt lat="44.18772" lon="0.7248">
        <ele>114</ele>
        <time>2025-12-07T14:16:10.148Z</time>
      </trkpt>
      <trkpt lat="44.18776" lon="0.72489">
        <ele>113</ele>
        <time>2025-12-07T14:16:16.148Z</time>
      </trkpt>
      <trkpt lat="44.18789" lon="0.72511">
        <ele>111</ele>
        <time>2025-12-07T14:16:32.148Z</time>
      </trkpt>
      <trkpt lat="44.18801" lon="0.72533">
        <ele>112</ele>
        <time>2025-12-07T14:16:48.148Z</time>
      </trkpt>
      <trkpt lat="44.18807" lon="0.7255">
        <ele>109</ele>
        <time>2025-12-07T14:17:00.148Z</time>
      </trkpt>
      <trkpt lat="44.18811" lon="0.72566">
        <ele>109</ele>
        <time>2025-12-07T14:17:10.148Z</time>
      </trkpt>
      <trkpt lat="44.18814" lon="0.72573">
        <ele>108</ele>
        <time>2025-12-07T14:17:14.148Z</time>
      </trkpt>
      <trkpt lat="44.18815" lon="0.7258">
        <ele>106</ele>
        <time>2025-12-07T14:17:18.148Z</time>
      </trkpt>
      <trkpt lat="44.18819" lon="0.72594">
        <ele>104</ele>
        <time>2025-12-07T14:17:34.148Z</time>
      </trkpt>
      <trkpt lat="44.18821" lon="0.72596">
        <ele>103</ele>
        <time>2025-12-07T14:17:50.148Z</time>
      </trkpt>
      <trkpt lat="44.18823" lon="0.72593">
        <ele>104</ele>
        <time>2025-12-07T14:18:00.148Z</time>
      </trkpt>
      <trkpt lat="44.18827" lon="0.72594">
        <ele>104</ele>
        <time>2025-12-07T14:18:04.148Z</time>
      </trkpt>
      <trkpt lat="44.18828" lon="0.72593">
        <ele>104</ele>
        <time>2025-12-07T14:18:06.148Z</time>
      </trkpt>
      <trkpt lat="44.18837" lon="0.72574">
        <ele>104</ele>
        <time>2025-12-07T14:18:22.148Z</time>
      </trkpt>
      <trkpt lat="44.18839" lon="0.72571">
        <ele>103</ele>
        <time>2025-12-07T14:18:26.148Z</time>
      </trkpt>
      <trkpt lat="44.18841" lon="0.7256">
        <ele>103</ele>
        <time>2025-12-07T14:18:34.148Z</time>
      </trkpt>
      <trkpt lat="44.18868" lon="0.72474">
        <ele>105</ele>
        <time>2025-12-07T14:19:30.148Z</time>
      </trkpt>
      <trkpt lat="44.18874" lon="0.72457">
        <ele>104</ele>
        <time>2025-12-07T14:19:42.148Z</time>
      </trkpt>
      <trkpt lat="44.18877" lon="0.72453">
        <ele>104</ele>
        <time>2025-12-07T14:19:46.148Z</time>
      </trkpt>
      <trkpt lat="44.18881" lon="0.72441">
        <ele>103</ele>
        <time>2025-12-07T14:19:54.148Z</time>
      </trkpt>
      <trkpt lat="44.18899" lon="0.72406">
        <ele>105</ele>
        <time>2025-12-07T14:20:18.148Z</time>
      </trkpt>
      <trkpt lat="44.18901" lon="0.724">
        <ele>105</ele>
        <time>2025-12-07T14:20:22.148Z</time>
      </trkpt>
      <trkpt lat="44.18925" lon="0.72356">
        <ele>98</ele>
        <time>2025-12-07T14:20:54.148Z</time>
      </trkpt>
      <trkpt lat="44.18936" lon="0.72331">
        <ele>99</ele>
        <time>2025-12-07T14:21:10.148Z</time>
      </trkpt>
      <trkpt lat="44.18942" lon="0.72321">
        <ele>98</ele>
        <time>2025-12-07T14:21:18.148Z</time>
      </trkpt>
      <trkpt lat="44.18951" lon="0.72298">
        <ele>96</ele>
        <time>2025-12-07T14:21:34.148Z</time>
      </trkpt>
      <trkpt lat="44.18962" lon="0.72275">
        <ele>94</ele>
        <time>2025-12-07T14:21:50.148Z</time>
      </trkpt>
      <trkpt lat="44.18977" lon="0.72237">
        <ele>92</ele>
        <time>2025-12-07T14:22:14.148Z</time>
      </trkpt>
      <trkpt lat="44.1898" lon="0.72224">
        <ele>91</ele>
        <time>2025-12-07T14:22:22.148Z</time>
      </trkpt>
      <trkpt lat="44.18981" lon="0.72216">
        <ele>91</ele>
        <time>2025-12-07T14:22:26.148Z</time>
      </trkpt>
      <trkpt lat="44.18981" lon="0.7221">
        <ele>90</ele>
        <time>2025-12-07T14:22:30.148Z</time>
      </trkpt>
      <trkpt lat="44.18979" lon="0.72204">
        <ele>89</ele>
        <time>2025-12-07T14:22:34.148Z</time>
      </trkpt>
      <trkpt lat="44.18976" lon="0.72198">
        <ele>89</ele>
        <time>2025-12-07T14:22:38.148Z</time>
      </trkpt>
      <trkpt lat="44.18973" lon="0.72194">
        <ele>89</ele>
        <time>2025-12-07T14:22:42.148Z</time>
      </trkpt>
      <trkpt lat="44.1897" lon="0.72192">
        <ele>88</ele>
        <time>2025-12-07T14:22:46.148Z</time>
      </trkpt>
      <trkpt lat="44.1896" lon="0.72189">
        <ele>89</ele>
        <time>2025-12-07T14:22:54.148Z</time>
      </trkpt>
      <trkpt lat="44.1895" lon="0.72191">
        <ele>88</ele>
        <time>2025-12-07T14:23:02.148Z</time>
      </trkpt>
      <trkpt lat="44.18944" lon="0.72194">
        <ele>87</ele>
        <time>2025-12-07T14:23:06.148Z</time>
      </trkpt>
      <trkpt lat="44.18937" lon="0.72199">
        <ele>86</ele>
        <time>2025-12-07T14:23:12.148Z</time>
      </trkpt>
      <trkpt lat="44.18927" lon="0.72201">
        <ele>85</ele>
        <time>2025-12-07T14:23:20.148Z</time>
      </trkpt>
      <trkpt lat="44.18923" lon="0.722">
        <ele>84</ele>
        <time>2025-12-07T14:23:24.148Z</time>
      </trkpt>
      <trkpt lat="44.18918" lon="0.72196">
        <ele>85</ele>
        <time>2025-12-07T14:23:28.148Z</time>
      </trkpt>
      <trkpt lat="44.18915" lon="0.72192">
        <ele>84</ele>
        <time>2025-12-07T14:23:32.148Z</time>
      </trkpt>
      <trkpt lat="44.18911" lon="0.72178">
        <ele>82</ele>
        <time>2025-12-07T14:23:40.148Z</time>
      </trkpt>
      <trkpt lat="44.18909" lon="0.72118">
        <ele>83</ele>
        <time>2025-12-07T14:24:12.148Z</time>
      </trkpt>
      <trkpt lat="44.18909" lon="0.7206">
        <ele>81</ele>
        <time>2025-12-07T14:24:44.148Z</time>
      </trkpt>
      <trkpt lat="44.1891" lon="0.72046">
        <ele>81</ele>
        <time>2025-12-07T14:24:52.148Z</time>
      </trkpt>
      <trkpt lat="44.18913" lon="0.72032">
        <ele>79</ele>
        <time>2025-12-07T14:25:00.148Z</time>
      </trkpt>
      <trkpt lat="44.18928" lon="0.71977">
        <ele>77</ele>
        <time>2025-12-07T14:25:32.148Z</time>
      </trkpt>
      <trkpt lat="44.18948" lon="0.71919">
        <ele>74</ele>
        <time>2025-12-07T14:26:08.148Z</time>
      </trkpt>
      <trkpt lat="44.18954" lon="0.71907">
        <ele>73</ele>
        <time>2025-12-07T14:26:16.148Z</time>
      </trkpt>
      <trkpt lat="44.18958" lon="0.71902">
        <ele>74</ele>
        <time>2025-12-07T14:26:20.148Z</time>
      </trkpt>
      <trkpt lat="44.18975" lon="0.71884">
        <ele>71</ele>
        <time>2025-12-07T14:26:36.148Z</time>
      </trkpt>
      <trkpt lat="44.18993" lon="0.7187">
        <ele>71</ele>
        <time>2025-12-07T14:26:52.148Z</time>
      </trkpt>
      <trkpt lat="44.19011" lon="0.71855">
        <ele>70</ele>
        <time>2025-12-07T14:27:08.148Z</time>
      </trkpt>
      <trkpt lat="44.19015" lon="0.7185">
        <ele>70</ele>
        <time>2025-12-07T14:27:12.148Z</time>
      </trkpt>
      <trkpt lat="44.19032" lon="0.7184">
        <ele>68</ele>
        <time>2025-12-07T14:27:28.148Z</time>
      </trkpt>
      <trkpt lat="44.19035" lon="0.71838">
        <ele>67</ele>
        <time>2025-12-07T14:27:32.148Z</time>
      </trkpt>
      <trkpt lat="44.19045" lon="0.71836">
        <ele>65</ele>
        <time>2025-12-07T14:27:40.148Z</time>
      </trkpt>
      <trkpt lat="44.19054" lon="0.71838">
        <ele>66</ele>
        <time>2025-12-07T14:27:48.148Z</time>
      </trkpt>
      <trkpt lat="44.1906" lon="0.71838">
        <ele>70</ele>
        <time>2025-12-07T14:27:54.148Z</time>
      </trkpt>
      <trkpt lat="44.19062" lon="0.71834">
        <ele>69</ele>
        <time>2025-12-07T14:27:58.148Z</time>
      </trkpt>
      <trkpt lat="44.19063" lon="0.71819">
        <ele>65</ele>
        <time>2025-12-07T14:28:10.148Z</time>
      </trkpt>
      <trkpt lat="44.19055" lon="0.71784">
        <ele>72</ele>
        <time>2025-12-07T14:28:42.148Z</time>
      </trkpt>
      <trkpt lat="44.19054" lon="0.71784">
        <ele>78</ele>
        <time>2025-12-07T14:28:50.148Z</time>
      </trkpt>
      <trkpt lat="44.19053" lon="0.71782">
        <ele>73</ele>
        <time>2025-12-07T14:29:06.148Z</time>
      </trkpt>
      <trkpt lat="44.19055" lon="0.71781">
        <ele>86</ele>
        <time>2025-12-07T14:29:22.148Z</time>
      </trkpt>
      <trkpt lat="44.19051" lon="0.71781">
        <ele>68</ele>
        <time>2025-12-07T14:30:12.148Z</time>
      </trkpt>
      <trkpt lat="44.1905" lon="0.71776">
        <ele>67</ele>
        <time>2025-12-07T14:30:16.148Z</time>
      </trkpt>
      <trkpt lat="44.19048" lon="0.71763">
        <ele>64</ele>
        <time>2025-12-07T14:30:24.148Z</time>
      </trkpt>
      <trkpt lat="44.19046" lon="0.71756">
        <ele>64</ele>
        <time>2025-12-07T14:30:28.148Z</time>
      </trkpt>
      <trkpt lat="44.19042" lon="0.71746">
        <ele>66</ele>
        <time>2025-12-07T14:30:36.148Z</time>
      </trkpt>
      <trkpt lat="44.19036" lon="0.71735">
        <ele>66</ele>
        <time>2025-12-07T14:30:48.148Z</time>
      </trkpt>
      <trkpt lat="44.1903" lon="0.71729">
        <ele>66</ele>
        <time>2025-12-07T14:30:56.148Z</time>
      </trkpt>
      <trkpt lat="44.19026" lon="0.71727">
        <ele>66</ele>
        <time>2025-12-07T14:31:00.148Z</time>
      </trkpt>
      <trkpt lat="44.19023" lon="0.71724">
        <ele>68</ele>
        <time>2025-12-07T14:31:04.148Z</time>
      </trkpt>
      <trkpt lat="44.19022" lon="0.71724">
        <ele>68</ele>
        <time>2025-12-07T14:31:06.148Z</time>
      </trkpt>
      <trkpt lat="44.19014" lon="0.71718">
        <ele>68</ele>
        <time>2025-12-07T14:31:16.148Z</time>
      </trkpt>
      <trkpt lat="44.1901" lon="0.71716">
        <ele>68</ele>
        <time>2025-12-07T14:31:20.148Z</time>
      </trkpt>
      <trkpt lat="44.19007" lon="0.71714">
        <ele>67</ele>
        <time>2025-12-07T14:31:24.148Z</time>
      </trkpt>
      <trkpt lat="44.19001" lon="0.71712">
        <ele>70</ele>
        <time>2025-12-07T14:31:32.148Z</time>
      </trkpt>
      <trkpt lat="44.18999" lon="0.71709">
        <ele>71</ele>
        <time>2025-12-07T14:31:36.148Z</time>
      </trkpt>
      <trkpt lat="44.18995" lon="0.71707">
        <ele>73</ele>
        <time>2025-12-07T14:31:44.148Z</time>
      </trkpt>
      <trkpt lat="44.18984" lon="0.71703">
        <ele>76</ele>
        <time>2025-12-07T14:31:54.148Z</time>
      </trkpt>
      <trkpt lat="44.1898" lon="0.71703">
        <ele>77</ele>
        <time>2025-12-07T14:31:58.148Z</time>
      </trkpt>
      <trkpt lat="44.18965" lon="0.71696">
        <ele>81</ele>
        <time>2025-12-07T14:32:14.148Z</time>
      </trkpt>
      <trkpt lat="44.18962" lon="0.71693">
        <ele>81</ele>
        <time>2025-12-07T14:32:18.148Z</time>
      </trkpt>
      <trkpt lat="44.18955" lon="0.71689">
        <ele>81</ele>
        <time>2025-12-07T14:32:26.148Z</time>
      </trkpt>
      <trkpt lat="44.18949" lon="0.71684">
        <ele>82</ele>
        <time>2025-12-07T14:32:34.148Z</time>
      </trkpt>
      <trkpt lat="44.18942" lon="0.71673">
        <ele>84</ele>
        <time>2025-12-07T14:32:46.148Z</time>
      </trkpt>
      <trkpt lat="44.18939" lon="0.71671">
        <ele>86</ele>
        <time>2025-12-07T14:32:50.148Z</time>
      </trkpt>
      <trkpt lat="44.18934" lon="0.71666">
        <ele>86</ele>
        <time>2025-12-07T14:32:54.148Z</time>
      </trkpt>
      <trkpt lat="44.18932" lon="0.71661">
        <ele>87</ele>
        <time>2025-12-07T14:32:58.148Z</time>
      </trkpt>
      <trkpt lat="44.18928" lon="0.71651">
        <ele>87</ele>
        <time>2025-12-07T14:33:06.148Z</time>
      </trkpt>
      <trkpt lat="44.18926" lon="0.71648">
        <ele>87</ele>
        <time>2025-12-07T14:33:10.148Z</time>
      </trkpt>
      <trkpt lat="44.18924" lon="0.71641">
        <ele>88</ele>
        <time>2025-12-07T14:33:14.148Z</time>
      </trkpt>
      <trkpt lat="44.18924" lon="0.71633">
        <ele>87</ele>
        <time>2025-12-07T14:33:18.148Z</time>
      </trkpt>
      <trkpt lat="44.18922" lon="0.7163">
        <ele>88</ele>
        <time>2025-12-07T14:33:20.148Z</time>
      </trkpt>
      <trkpt lat="44.18919" lon="0.71617">
        <ele>89</ele>
        <time>2025-12-07T14:33:32.148Z</time>
      </trkpt>
      <trkpt lat="44.1892" lon="0.71614">
        <ele>89</ele>
        <time>2025-12-07T14:33:34.148Z</time>
      </trkpt>
      <trkpt lat="44.18916" lon="0.71606">
        <ele>91</ele>
        <time>2025-12-07T14:33:42.148Z</time>
      </trkpt>
      <trkpt lat="44.18914" lon="0.71595">
        <ele>91</ele>
        <time>2025-12-07T14:33:50.148Z</time>
      </trkpt>
      <trkpt lat="44.1891" lon="0.71582">
        <ele>90</ele>
        <time>2025-12-07T14:34:02.148Z</time>
      </trkpt>
      <trkpt lat="44.18911" lon="0.7158">
        <ele>90</ele>
        <time>2025-12-07T14:34:04.148Z</time>
      </trkpt>
      <trkpt lat="44.18906" lon="0.71566">
        <ele>93</ele>
        <time>2025-12-07T14:34:16.148Z</time>
      </trkpt>
      <trkpt lat="44.18904" lon="0.71562">
        <ele>94</ele>
        <time>2025-12-07T14:34:20.148Z</time>
      </trkpt>
      <trkpt lat="44.18903" lon="0.71556">
        <ele>95</ele>
        <time>2025-12-07T14:34:24.148Z</time>
      </trkpt>
      <trkpt lat="44.189" lon="0.71552">
        <ele>93</ele>
        <time>2025-12-07T14:34:28.148Z</time>
      </trkpt>
      <trkpt lat="44.18899" lon="0.71548">
        <ele>92</ele>
        <time>2025-12-07T14:34:32.148Z</time>
      </trkpt>
      <trkpt lat="44.18898" lon="0.71542">
        <ele>94</ele>
        <time>2025-12-07T14:34:36.148Z</time>
      </trkpt>
      <trkpt lat="44.18892" lon="0.71532">
        <ele>98</ele>
        <time>2025-12-07T14:34:48.148Z</time>
      </trkpt>
      <trkpt lat="44.18891" lon="0.71524">
        <ele>102</ele>
        <time>2025-12-07T14:34:56.148Z</time>
      </trkpt>
      <trkpt lat="44.1889" lon="0.71523">
        <ele>103</ele>
        <time>2025-12-07T14:34:58.148Z</time>
      </trkpt>
      <trkpt lat="44.18885" lon="0.71517">
        <ele>105</ele>
        <time>2025-12-07T14:35:06.148Z</time>
      </trkpt>
      <trkpt lat="44.18884" lon="0.71509">
        <ele>103</ele>
        <time>2025-12-07T14:35:14.148Z</time>
      </trkpt>
      <trkpt lat="44.1888" lon="0.71503">
        <ele>104</ele>
        <time>2025-12-07T14:35:20.148Z</time>
      </trkpt>
      <trkpt lat="44.18879" lon="0.71495">
        <ele>104</ele>
        <time>2025-12-07T14:35:24.148Z</time>
      </trkpt>
      <trkpt lat="44.18876" lon="0.71488">
        <ele>107</ele>
        <time>2025-12-07T14:35:32.148Z</time>
      </trkpt>
      <trkpt lat="44.18874" lon="0.71486">
        <ele>109</ele>
        <time>2025-12-07T14:35:34.148Z</time>
      </trkpt>
      <trkpt lat="44.18873" lon="0.71474">
        <ele>110</ele>
        <time>2025-12-07T14:35:42.148Z</time>
      </trkpt>
      <trkpt lat="44.18874" lon="0.71472">
        <ele>110</ele>
        <time>2025-12-07T14:35:44.148Z</time>
      </trkpt>
      <trkpt lat="44.18874" lon="0.7147">
        <ele>109</ele>
        <time>2025-12-07T14:35:46.148Z</time>
      </trkpt>
      <trkpt lat="44.18873" lon="0.71468">
        <ele>108</ele>
        <time>2025-12-07T14:35:48.148Z</time>
      </trkpt>
      <trkpt lat="44.1887" lon="0.71458">
        <ele>106</ele>
        <time>2025-12-07T14:35:58.148Z</time>
      </trkpt>
      <trkpt lat="44.18866" lon="0.71453">
        <ele>106</ele>
        <time>2025-12-07T14:36:05.148Z</time>
      </trkpt>
      <trkpt lat="44.18865" lon="0.71447">
        <ele>107</ele>
        <time>2025-12-07T14:36:09.148Z</time>
      </trkpt>
      <trkpt lat="44.18858" lon="0.7144">
        <ele>108</ele>
        <time>2025-12-07T14:36:17.148Z</time>
      </trkpt>
      <trkpt lat="44.18846" lon="0.71432">
        <ele>113</ele>
        <time>2025-12-07T14:36:37.148Z</time>
      </trkpt>
      <trkpt lat="44.18838" lon="0.71422">
        <ele>114</ele>
        <time>2025-12-07T14:36:49.148Z</time>
      </trkpt>
      <trkpt lat="44.18836" lon="0.71417">
        <ele>116</ele>
        <time>2025-12-07T14:36:53.148Z</time>
      </trkpt>
      <trkpt lat="44.18829" lon="0.71412">
        <ele>118</ele>
        <time>2025-12-07T14:36:59.148Z</time>
      </trkpt>
      <trkpt lat="44.18828" lon="0.71409">
        <ele>118</ele>
        <time>2025-12-07T14:37:01.148Z</time>
      </trkpt>
      <trkpt lat="44.18819" lon="0.71405">
        <ele>122</ele>
        <time>2025-12-07T14:37:08.148Z</time>
      </trkpt>
      <trkpt lat="44.18816" lon="0.714">
        <ele>122</ele>
        <time>2025-12-07T14:37:12.148Z</time>
      </trkpt>
      <trkpt lat="44.18812" lon="0.71397">
        <ele>121</ele>
        <time>2025-12-07T14:37:16.148Z</time>
      </trkpt>
      <trkpt lat="44.18809" lon="0.71393">
        <ele>120</ele>
        <time>2025-12-07T14:37:20.148Z</time>
      </trkpt>
      <trkpt lat="44.18805" lon="0.7139">
        <ele>118</ele>
        <time>2025-12-07T14:37:24.148Z</time>
      </trkpt>
      <trkpt lat="44.18791" lon="0.71375">
        <ele>112</ele>
        <time>2025-12-07T14:37:40.148Z</time>
      </trkpt>
      <trkpt lat="44.18788" lon="0.7137">
        <ele>111</ele>
        <time>2025-12-07T14:37:46.148Z</time>
      </trkpt>
      <trkpt lat="44.18786" lon="0.71363">
        <ele>111</ele>
        <time>2025-12-07T14:37:50.148Z</time>
      </trkpt>
      <trkpt lat="44.18784" lon="0.71361">
        <ele>111</ele>
        <time>2025-12-07T14:37:52.148Z</time>
      </trkpt>
      <trkpt lat="44.18781" lon="0.7136">
        <ele>111</ele>
        <time>2025-12-07T14:37:54.148Z</time>
      </trkpt>
      <trkpt lat="44.18776" lon="0.71352">
        <ele>112</ele>
        <time>2025-12-07T14:38:02.148Z</time>
      </trkpt>
      <trkpt lat="44.18768" lon="0.71346">
        <ele>114</ele>
        <time>2025-12-07T14:38:10.148Z</time>
      </trkpt>
      <trkpt lat="44.18764" lon="0.71336">
        <ele>117</ele>
        <time>2025-12-07T14:38:18.148Z</time>
      </trkpt>
      <trkpt lat="44.18759" lon="0.71323">
        <ele>114</ele>
        <time>2025-12-07T14:38:28.148Z</time>
      </trkpt>
      <trkpt lat="44.18759" lon="0.7132">
        <ele>113</ele>
        <time>2025-12-07T14:38:29.148Z</time>
      </trkpt>
      <trkpt lat="44.18759" lon="0.71315">
        <ele>112</ele>
        <time>2025-12-07T14:38:31.148Z</time>
      </trkpt>
      <trkpt lat="44.18752" lon="0.71301">
        <ele>109</ele>
        <time>2025-12-07T14:38:43.148Z</time>
      </trkpt>
      <trkpt lat="44.1875" lon="0.71291">
        <ele>111</ele>
        <time>2025-12-07T14:38:51.148Z</time>
      </trkpt>
      <trkpt lat="44.18748" lon="0.71286">
        <ele>112</ele>
        <time>2025-12-07T14:38:55.148Z</time>
      </trkpt>
      <trkpt lat="44.18743" lon="0.71278">
        <ele>115</ele>
        <time>2025-12-07T14:39:03.148Z</time>
      </trkpt>
      <trkpt lat="44.18742" lon="0.71275">
        <ele>115</ele>
        <time>2025-12-07T14:39:07.148Z</time>
      </trkpt>
      <trkpt lat="44.18738" lon="0.71273">
        <ele>116</ele>
        <time>2025-12-07T14:39:11.148Z</time>
      </trkpt>
      <trkpt lat="44.18734" lon="0.71271">
        <ele>117</ele>
        <time>2025-12-07T14:39:15.148Z</time>
      </trkpt>
      <trkpt lat="44.18732" lon="0.7127">
        <ele>118</ele>
        <time>2025-12-07T14:39:17.148Z</time>
      </trkpt>
      <trkpt lat="44.1873" lon="0.71264">
        <ele>120</ele>
        <time>2025-12-07T14:39:25.148Z</time>
      </trkpt>
      <trkpt lat="44.18726" lon="0.71263">
        <ele>120</ele>
        <time>2025-12-07T14:39:29.148Z</time>
      </trkpt>
      <trkpt lat="44.18722" lon="0.71261">
        <ele>119</ele>
        <time>2025-12-07T14:39:33.148Z</time>
      </trkpt>
      <trkpt lat="44.18721" lon="0.71259">
        <ele>118</ele>
        <time>2025-12-07T14:39:37.148Z</time>
      </trkpt>
      <trkpt lat="44.18713" lon="0.71255">
        <ele>120</ele>
        <time>2025-12-07T14:39:43.148Z</time>
      </trkpt>
      <trkpt lat="44.18707" lon="0.71256">
        <ele>120</ele>
        <time>2025-12-07T14:39:47.148Z</time>
      </trkpt>
      <trkpt lat="44.187" lon="0.71253">
        <ele>121</ele>
        <time>2025-12-07T14:39:55.148Z</time>
      </trkpt>
      <trkpt lat="44.18691" lon="0.7125">
        <ele>122</ele>
        <time>2025-12-07T14:40:03.148Z</time>
      </trkpt>
      <trkpt lat="44.18689" lon="0.7125">
        <ele>123</ele>
        <time>2025-12-07T14:40:05.148Z</time>
      </trkpt>
      <trkpt lat="44.18684" lon="0.71248">
        <ele>125</ele>
        <time>2025-12-07T14:40:09.148Z</time>
      </trkpt>
      <trkpt lat="44.1868" lon="0.7125">
        <ele>127</ele>
        <time>2025-12-07T14:40:17.148Z</time>
      </trkpt>
      <trkpt lat="44.18677" lon="0.71252">
        <ele>127</ele>
        <time>2025-12-07T14:40:33.148Z</time>
      </trkpt>
      <trkpt lat="44.18676" lon="0.71252">
        <ele>131</ele>
        <time>2025-12-07T14:40:41.148Z</time>
      </trkpt>
      <trkpt lat="44.18676" lon="0.71252">
        <ele>132</ele>
        <time>2025-12-07T14:40:49.148Z</time>
      </trkpt>
      <trkpt lat="44.18674" lon="0.71252">
        <ele>127</ele>
        <time>2025-12-07T14:41:01.148Z</time>
      </trkpt>
      <trkpt lat="44.18674" lon="0.7125">
        <ele>126</ele>
        <time>2025-12-07T14:41:21.148Z</time>
      </trkpt>
      <trkpt lat="44.18675" lon="0.71251">
        <ele>124</ele>
        <time>2025-12-07T14:41:37.148Z</time>
      </trkpt>
      <trkpt lat="44.18674" lon="0.71251">
        <ele>123</ele>
        <time>2025-12-07T14:41:41.148Z</time>
      </trkpt>
      <trkpt lat="44.18674" lon="0.71253">
        <ele>119</ele>
        <time>2025-12-07T14:41:49.148Z</time>
      </trkpt>
      <trkpt lat="44.18674" lon="0.71252">
        <ele>119</ele>
        <time>2025-12-07T14:42:05.148Z</time>
      </trkpt>
      <trkpt lat="44.18674" lon="0.71253">
        <ele>119</ele>
        <time>2025-12-07T14:42:09.148Z</time>
      </trkpt>
      <trkpt lat="44.18673" lon="0.71255">
        <ele>121</ele>
        <time>2025-12-07T14:42:13.148Z</time>
      </trkpt>
      <trkpt lat="44.1867" lon="0.71255">
        <ele>123</ele>
        <time>2025-12-07T14:42:17.148Z</time>
      </trkpt>
      <trkpt lat="44.18666" lon="0.71255">
        <ele>125</ele>
        <time>2025-12-07T14:42:25.148Z</time>
      </trkpt>
      <trkpt lat="44.18663" lon="0.71252">
        <ele>126</ele>
        <time>2025-12-07T14:42:29.148Z</time>
      </trkpt>
      <trkpt lat="44.18663" lon="0.71251">
        <ele>127</ele>
        <time>2025-12-07T14:42:37.148Z</time>
      </trkpt>
      <trkpt lat="44.18659" lon="0.71253">
        <ele>124</ele>
        <time>2025-12-07T14:42:49.148Z</time>
      </trkpt>
      <trkpt lat="44.18657" lon="0.71257">
        <ele>123</ele>
        <time>2025-12-07T14:42:53.148Z</time>
      </trkpt>
      <trkpt lat="44.18653" lon="0.71261">
        <ele>123</ele>
        <time>2025-12-07T14:43:01.148Z</time>
      </trkpt>
      <trkpt lat="44.18648" lon="0.71269">
        <ele>122</ele>
        <time>2025-12-07T14:43:09.148Z</time>
      </trkpt>
      <trkpt lat="44.18644" lon="0.71279">
        <ele>120</ele>
        <time>2025-12-07T14:43:17.148Z</time>
      </trkpt>
      <trkpt lat="44.18639" lon="0.71288">
        <ele>116</ele>
        <time>2025-12-07T14:43:25.148Z</time>
      </trkpt>
      <trkpt lat="44.18637" lon="0.71289">
        <ele>116</ele>
        <time>2025-12-07T14:43:27.148Z</time>
      </trkpt>
      <trkpt lat="44.18635" lon="0.71289">
        <ele>116</ele>
        <time>2025-12-07T14:43:29.148Z</time>
      </trkpt>
      <trkpt lat="44.18633" lon="0.71288">
        <ele>117</ele>
        <time>2025-12-07T14:43:31.148Z</time>
      </trkpt>
      <trkpt lat="44.1863" lon="0.71284">
        <ele>116</ele>
        <time>2025-12-07T14:43:35.148Z</time>
      </trkpt>
      <trkpt lat="44.1863" lon="0.71273">
        <ele>112</ele>
        <time>2025-12-07T14:43:43.148Z</time>
      </trkpt>
      <trkpt lat="44.18629" lon="0.71266">
        <ele>108</ele>
        <time>2025-12-07T14:43:51.148Z</time>
      </trkpt>
      <trkpt lat="44.1863" lon="0.71261">
        <ele>108</ele>
        <time>2025-12-07T14:43:55.148Z</time>
      </trkpt>
      <trkpt lat="44.1863" lon="0.71259">
        <ele>108</ele>
        <time>2025-12-07T14:43:57.148Z</time>
      </trkpt>
      <trkpt lat="44.18627" lon="0.71253">
        <ele>108</ele>
        <time>2025-12-07T14:44:01.148Z</time>
      </trkpt>
      <trkpt lat="44.18627" lon="0.71249">
        <ele>108</ele>
        <time>2025-12-07T14:44:03.148Z</time>
      </trkpt>
      <trkpt lat="44.18628" lon="0.71247">
        <ele>108</ele>
        <time>2025-12-07T14:44:05.148Z</time>
      </trkpt>
      <trkpt lat="44.18629" lon="0.71241">
        <ele>108</ele>
        <time>2025-12-07T14:44:09.148Z</time>
      </trkpt>
      <trkpt lat="44.18628" lon="0.7122">
        <ele>106</ele>
        <time>2025-12-07T14:44:21.148Z</time>
      </trkpt>
      <trkpt lat="44.18629" lon="0.71209">
        <ele>104</ele>
        <time>2025-12-07T14:44:31.148Z</time>
      </trkpt>
      <trkpt lat="44.1863" lon="0.71207">
        <ele>104</ele>
        <time>2025-12-07T14:44:33.148Z</time>
      </trkpt>
      <trkpt lat="44.18631" lon="0.712">
        <ele>103</ele>
        <time>2025-12-07T14:44:37.148Z</time>
      </trkpt>
      <trkpt lat="44.18632" lon="0.71197">
        <ele>103</ele>
        <time>2025-12-07T14:44:39.148Z</time>
      </trkpt>
      <trkpt lat="44.18631" lon="0.71191">
        <ele>103</ele>
        <time>2025-12-07T14:44:43.148Z</time>
      </trkpt>
      <trkpt lat="44.18632" lon="0.71178">
        <ele>98</ele>
        <time>2025-12-07T14:44:51.148Z</time>
      </trkpt>
      <trkpt lat="44.18632" lon="0.71162">
        <ele>95</ele>
        <time>2025-12-07T14:44:59.148Z</time>
      </trkpt>
      <trkpt lat="44.18636" lon="0.71149">
        <ele>96</ele>
        <time>2025-12-07T14:45:07.148Z</time>
      </trkpt>
      <trkpt lat="44.1864" lon="0.71137">
        <ele>96</ele>
        <time>2025-12-07T14:45:15.148Z</time>
      </trkpt>
      <trkpt lat="44.18643" lon="0.71126">
        <ele>95</ele>
        <time>2025-12-07T14:45:23.148Z</time>
      </trkpt>
      <trkpt lat="44.18648" lon="0.71113">
        <ele>92</ele>
        <time>2025-12-07T14:45:33.148Z</time>
      </trkpt>
      <trkpt lat="44.18649" lon="0.71106">
        <ele>90</ele>
        <time>2025-12-07T14:45:37.148Z</time>
      </trkpt>
      <trkpt lat="44.1865" lon="0.71102">
        <ele>89</ele>
        <time>2025-12-07T14:45:41.148Z</time>
      </trkpt>
      <trkpt lat="44.18652" lon="0.71081">
        <ele>85</ele>
        <time>2025-12-07T14:45:55.148Z</time>
      </trkpt>
      <trkpt lat="44.18652" lon="0.71067">
        <ele>81</ele>
        <time>2025-12-07T14:46:03.148Z</time>
      </trkpt>
      <trkpt lat="44.18649" lon="0.71043">
        <ele>77</ele>
        <time>2025-12-07T14:46:19.148Z</time>
      </trkpt>
      <trkpt lat="44.18648" lon="0.71029">
        <ele>76</ele>
        <time>2025-12-07T14:46:27.148Z</time>
      </trkpt>
      <trkpt lat="44.18647" lon="0.71027">
        <ele>75</ele>
        <time>2025-12-07T14:46:29.148Z</time>
      </trkpt>
      <trkpt lat="44.18644" lon="0.71022">
        <ele>76</ele>
        <time>2025-12-07T14:46:33.148Z</time>
      </trkpt>
      <trkpt lat="44.18643" lon="0.71018">
        <ele>76</ele>
        <time>2025-12-07T14:46:37.148Z</time>
      </trkpt>
      <trkpt lat="44.18642" lon="0.71003">
        <ele>76</ele>
        <time>2025-12-07T14:46:47.148Z</time>
      </trkpt>
      <trkpt lat="44.1864" lon="0.70998">
        <ele>75</ele>
        <time>2025-12-07T14:46:51.148Z</time>
      </trkpt>
      <trkpt lat="44.18632" lon="0.7099">
        <ele>74</ele>
        <time>2025-12-07T14:47:00.148Z</time>
      </trkpt>
      <trkpt lat="44.18633" lon="0.70988">
        <ele>74</ele>
        <time>2025-12-07T14:47:01.148Z</time>
      </trkpt>
      <trkpt lat="44.18629" lon="0.70983">
        <ele>74</ele>
        <time>2025-12-07T14:47:05.148Z</time>
      </trkpt>
      <trkpt lat="44.18622" lon="0.70977">
        <ele>73</ele>
        <time>2025-12-07T14:47:11.148Z</time>
      </trkpt>
      <trkpt lat="44.1862" lon="0.70973">
        <ele>72</ele>
        <time>2025-12-07T14:47:13.148Z</time>
      </trkpt>
      <trkpt lat="44.18619" lon="0.70965">
        <ele>72</ele>
        <time>2025-12-07T14:47:17.148Z</time>
      </trkpt>
      <trkpt lat="44.18619" lon="0.70961">
        <ele>71</ele>
        <time>2025-12-07T14:47:21.148Z</time>
      </trkpt>
      <trkpt lat="44.1862" lon="0.7096">
        <ele>65</ele>
        <time>2025-12-07T14:47:37.148Z</time>
      </trkpt>
      <trkpt lat="44.18621" lon="0.70956">
        <ele>64</ele>
        <time>2025-12-07T14:47:53.148Z</time>
      </trkpt>
      <trkpt lat="44.18621" lon="0.70956">
        <ele>65</ele>
        <time>2025-12-07T14:48:01.148Z</time>
      </trkpt>
      <trkpt lat="44.18622" lon="0.70954">
        <ele>67</ele>
        <time>2025-12-07T14:48:09.148Z</time>
      </trkpt>
      <trkpt lat="44.18621" lon="0.70952">
        <ele>72</ele>
        <time>2025-12-07T14:48:41.148Z</time>
      </trkpt>
      <trkpt lat="44.18622" lon="0.70949">
        <ele>72</ele>
        <time>2025-12-07T14:49:01.148Z</time>
      </trkpt>
      <trkpt lat="44.18624" lon="0.7095">
        <ele>71</ele>
        <time>2025-12-07T14:49:09.148Z</time>
      </trkpt>
      <trkpt lat="44.18624" lon="0.70947">
        <ele>70</ele>
        <time>2025-12-07T14:49:25.148Z</time>
      </trkpt>
      <trkpt lat="44.18625" lon="0.70948">
        <ele>70</ele>
        <time>2025-12-07T14:49:29.148Z</time>
      </trkpt>
      <trkpt lat="44.18626" lon="0.70943">
        <ele>70</ele>
        <time>2025-12-07T14:49:43.148Z</time>
      </trkpt>
      <trkpt lat="44.18625" lon="0.7094">
        <ele>68</ele>
        <time>2025-12-07T14:49:47.148Z</time>
      </trkpt>
      <trkpt lat="44.18624" lon="0.70936">
        <ele>67</ele>
        <time>2025-12-07T14:49:51.148Z</time>
      </trkpt>
      <trkpt lat="44.18621" lon="0.70928">
        <ele>66</ele>
        <time>2025-12-07T14:49:59.148Z</time>
      </trkpt>
      <trkpt lat="44.18615" lon="0.70919">
        <ele>63</ele>
        <time>2025-12-07T14:50:07.148Z</time>
      </trkpt>
      <trkpt lat="44.18612" lon="0.70916">
        <ele>63</ele>
        <time>2025-12-07T14:50:11.148Z</time>
      </trkpt>
      <trkpt lat="44.18608" lon="0.70914">
        <ele>64</ele>
        <time>2025-12-07T14:50:15.148Z</time>
      </trkpt>
      <trkpt lat="44.18595" lon="0.70901">
        <ele>65</ele>
        <time>2025-12-07T14:50:31.148Z</time>
      </trkpt>
      <trkpt lat="44.18588" lon="0.70891">
        <ele>63</ele>
        <time>2025-12-07T14:50:39.148Z</time>
      </trkpt>
      <trkpt lat="44.18584" lon="0.70881">
        <ele>61</ele>
        <time>2025-12-07T14:50:47.148Z</time>
      </trkpt>
      <trkpt lat="44.18582" lon="0.70868">
        <ele>60</ele>
        <time>2025-12-07T14:50:55.148Z</time>
      </trkpt>
      <trkpt lat="44.18585" lon="0.70811">
        <ele>58</ele>
        <time>2025-12-07T14:51:27.148Z</time>
      </trkpt>
      <trkpt lat="44.18587" lon="0.70795">
        <ele>58</ele>
        <time>2025-12-07T14:51:35.148Z</time>
      </trkpt>
      <trkpt lat="44.1859" lon="0.70746">
        <ele>51</ele>
        <time>2025-12-07T14:52:03.148Z</time>
      </trkpt>
      <trkpt lat="44.18589" lon="0.70739">
        <ele>50</ele>
        <time>2025-12-07T14:52:07.148Z</time>
      </trkpt>
      <trkpt lat="44.1859" lon="0.70732">
        <ele>49</ele>
        <time>2025-12-07T14:52:11.148Z</time>
      </trkpt>
      <trkpt lat="44.18591" lon="0.70726">
        <ele>50</ele>
        <time>2025-12-07T14:52:15.148Z</time>
      </trkpt>
      <trkpt lat="44.18593" lon="0.70706">
        <ele>52</ele>
        <time>2025-12-07T14:52:27.148Z</time>
      </trkpt>
      <trkpt lat="44.18594" lon="0.70692">
        <ele>52</ele>
        <time>2025-12-07T14:52:35.148Z</time>
      </trkpt>
      <trkpt lat="44.18596" lon="0.70678">
        <ele>53</ele>
        <time>2025-12-07T14:52:43.148Z</time>
      </trkpt>
      <trkpt lat="44.18603" lon="0.70652">
        <ele>56</ele>
        <time>2025-12-07T14:52:59.148Z</time>
      </trkpt>
      <trkpt lat="44.18606" lon="0.70645">
        <ele>56</ele>
        <time>2025-12-07T14:53:03.148Z</time>
      </trkpt>
      <trkpt lat="44.18613" lon="0.70618">
        <ele>58</ele>
        <time>2025-12-07T14:53:19.148Z</time>
      </trkpt>
      <trkpt lat="44.18615" lon="0.70599">
        <ele>59</ele>
        <time>2025-12-07T14:53:31.148Z</time>
      </trkpt>
      <trkpt lat="44.18614" lon="0.70591">
        <ele>59</ele>
        <time>2025-12-07T14:53:35.148Z</time>
      </trkpt>
      <trkpt lat="44.18615" lon="0.70576">
        <ele>60</ele>
        <time>2025-12-07T14:53:43.148Z</time>
      </trkpt>
      <trkpt lat="44.18613" lon="0.70548">
        <ele>56</ele>
        <time>2025-12-07T14:53:59.148Z</time>
      </trkpt>
      <trkpt lat="44.18613" lon="0.7049">
        <ele>58</ele>
        <time>2025-12-07T14:54:31.148Z</time>
      </trkpt>
      <trkpt lat="44.18613" lon="0.70482">
        <ele>57</ele>
        <time>2025-12-07T14:54:35.148Z</time>
      </trkpt>
      <trkpt lat="44.18612" lon="0.70468">
        <ele>56</ele>
        <time>2025-12-07T14:54:43.148Z</time>
      </trkpt>
      <trkpt lat="44.18612" lon="0.70445">
        <ele>56</ele>
        <time>2025-12-07T14:54:55.148Z</time>
      </trkpt>
      <trkpt lat="44.18611" lon="0.70416">
        <ele>58</ele>
        <time>2025-12-07T14:55:11.148Z</time>
      </trkpt>
      <trkpt lat="44.18608" lon="0.70389">
        <ele>56</ele>
        <time>2025-12-07T14:55:27.148Z</time>
      </trkpt>
      <trkpt lat="44.18605" lon="0.70375">
        <ele>55</ele>
        <time>2025-12-07T14:55:35.148Z</time>
      </trkpt>
      <trkpt lat="44.18605" lon="0.70365">
        <ele>55</ele>
        <time>2025-12-07T14:55:41.148Z</time>
      </trkpt>
      <trkpt lat="44.18603" lon="0.70358">
        <ele>56</ele>
        <time>2025-12-07T14:55:45.148Z</time>
      </trkpt>
      <trkpt lat="44.186" lon="0.70299">
        <ele>53</ele>
        <time>2025-12-07T14:56:17.148Z</time>
      </trkpt>
      <trkpt lat="44.18601" lon="0.70284">
        <ele>53</ele>
        <time>2025-12-07T14:56:25.148Z</time>
      </trkpt>
      <trkpt lat="44.18599" lon="0.70269">
        <ele>53</ele>
        <time>2025-12-07T14:56:33.148Z</time>
      </trkpt>
      <trkpt lat="44.18601" lon="0.70208">
        <ele>54</ele>
        <time>2025-12-07T14:57:05.148Z</time>
      </trkpt>
      <trkpt lat="44.18601" lon="0.70194">
        <ele>54</ele>
        <time>2025-12-07T14:57:13.148Z</time>
      </trkpt>
      <trkpt lat="44.18601" lon="0.70183">
        <ele>55</ele>
        <time>2025-12-07T14:57:19.148Z</time>
      </trkpt>
      <trkpt lat="44.18599" lon="0.70177">
        <ele>55</ele>
        <time>2025-12-07T14:57:23.148Z</time>
      </trkpt>
      <trkpt lat="44.18597" lon="0.70163">
        <ele>57</ele>
        <time>2025-12-07T14:57:31.148Z</time>
      </trkpt>
      <trkpt lat="44.18599" lon="0.70149">
        <ele>57</ele>
        <time>2025-12-07T14:57:39.148Z</time>
      </trkpt>
      <trkpt lat="44.18599" lon="0.70142">
        <ele>56</ele>
        <time>2025-12-07T14:57:43.148Z</time>
      </trkpt>
      <trkpt lat="44.18587" lon="0.7012">
        <ele>52</ele>
        <time>2025-12-07T14:57:59.148Z</time>
      </trkpt>
      <trkpt lat="44.18561" lon="0.70077">
        <ele>52</ele>
        <time>2025-12-07T14:58:31.148Z</time>
      </trkpt>
      <trkpt lat="44.18542" lon="0.70043">
        <ele>53</ele>
        <time>2025-12-07T14:58:55.148Z</time>
      </trkpt>
      <trkpt lat="44.18525" lon="0.7002">
        <ele>52</ele>
        <time>2025-12-07T14:59:17.148Z</time>
      </trkpt>
      <trkpt lat="44.18513" lon="0.70021">
        <ele>53</ele>
        <time>2025-12-07T14:59:29.148Z</time>
      </trkpt>
      <trkpt lat="44.18506" lon="0.70027">
        <ele>55</ele>
        <time>2025-12-07T14:59:37.148Z</time>
      </trkpt>
      <trkpt lat="44.18499" lon="0.70035">
        <ele>54</ele>
        <time>2025-12-07T14:59:45.148Z</time>
      </trkpt>
      <trkpt lat="44.18495" lon="0.70039">
        <ele>52</ele>
        <time>2025-12-07T14:59:53.148Z</time>
      </trkpt>
      <trkpt lat="44.18489" lon="0.70046">
        <ele>51</ele>
        <time>2025-12-07T15:00:01.148Z</time>
      </trkpt>
      <trkpt lat="44.18474" lon="0.70063">
        <ele>49</ele>
        <time>2025-12-07T15:00:17.148Z</time>
      </trkpt>
      <trkpt lat="44.18469" lon="0.70066">
        <ele>50</ele>
        <time>2025-12-07T15:00:21.148Z</time>
      </trkpt>
      <trkpt lat="44.18446" lon="0.70092">
        <ele>49</ele>
        <time>2025-12-07T15:00:45.148Z</time>
      </trkpt>
      <trkpt lat="44.18439" lon="0.701">
        <ele>49</ele>
        <time>2025-12-07T15:00:53.148Z</time>
      </trkpt>
      <trkpt lat="44.18423" lon="0.70118">
        <ele>49</ele>
        <time>2025-12-07T15:01:09.148Z</time>
      </trkpt>
      <trkpt lat="44.18404" lon="0.70141">
        <ele>48</ele>
        <time>2025-12-07T15:01:29.148Z</time>
      </trkpt>
      <trkpt lat="44.18396" lon="0.70149">
        <ele>49</ele>
        <time>2025-12-07T15:01:37.148Z</time>
      </trkpt>
      <trkpt lat="44.18381" lon="0.70168">
        <ele>47</ele>
        <time>2025-12-07T15:01:53.148Z</time>
      </trkpt>
      <trkpt lat="44.18378" lon="0.70174">
        <ele>48</ele>
        <time>2025-12-07T15:01:57.148Z</time>
      </trkpt>
      <trkpt lat="44.1837" lon="0.70183">
        <ele>48</ele>
        <time>2025-12-07T15:02:05.148Z</time>
      </trkpt>
      <trkpt lat="44.18358" lon="0.70204">
        <ele>48</ele>
        <time>2025-12-07T15:02:21.148Z</time>
      </trkpt>
      <trkpt lat="44.18345" lon="0.70219">
        <ele>47</ele>
        <time>2025-12-07T15:02:37.148Z</time>
      </trkpt>
      <trkpt lat="44.18328" lon="0.70233">
        <ele>49</ele>
        <time>2025-12-07T15:02:53.148Z</time>
      </trkpt>
      <trkpt lat="44.18323" lon="0.70235">
        <ele>50</ele>
        <time>2025-12-07T15:02:57.148Z</time>
      </trkpt>
      <trkpt lat="44.18313" lon="0.70236">
        <ele>54</ele>
        <time>2025-12-07T15:03:05.148Z</time>
      </trkpt>
      <trkpt lat="44.18308" lon="0.70236">
        <ele>55</ele>
        <time>2025-12-07T15:03:09.148Z</time>
      </trkpt>
      <trkpt lat="44.18299" lon="0.70233">
        <ele>54</ele>
        <time>2025-12-07T15:03:17.148Z</time>
      </trkpt>
      <trkpt lat="44.18297" lon="0.70231">
        <ele>53</ele>
        <time>2025-12-07T15:03:19.148Z</time>
      </trkpt>
      <trkpt lat="44.18289" lon="0.70207">
        <ele>50</ele>
        <time>2025-12-07T15:03:35.148Z</time>
      </trkpt>
      <trkpt lat="44.18288" lon="0.70201">
        <ele>50</ele>
        <time>2025-12-07T15:03:39.148Z</time>
      </trkpt>
      <trkpt lat="44.18286" lon="0.70196">
        <ele>50</ele>
        <time>2025-12-07T15:03:43.148Z</time>
      </trkpt>
      <trkpt lat="44.18283" lon="0.70177">
        <ele>48</ele>
        <time>2025-12-07T15:03:59.148Z</time>
      </trkpt>
      <trkpt lat="44.18283" lon="0.70172">
        <ele>48</ele>
        <time>2025-12-07T15:04:03.148Z</time>
      </trkpt>
      <trkpt lat="44.1828" lon="0.70165">
        <ele>49</ele>
        <time>2025-12-07T15:04:09.148Z</time>
      </trkpt>
      <trkpt lat="44.18277" lon="0.70138">
        <ele>49</ele>
        <time>2025-12-07T15:04:25.148Z</time>
      </trkpt>
      <trkpt lat="44.18274" lon="0.70129">
        <ele>49</ele>
        <time>2025-12-07T15:04:33.148Z</time>
      </trkpt>
      <trkpt lat="44.1827" lon="0.70125">
        <ele>48</ele>
        <time>2025-12-07T15:04:37.148Z</time>
      </trkpt>
      <trkpt lat="44.18266" lon="0.70123">
        <ele>49</ele>
        <time>2025-12-07T15:04:41.148Z</time>
      </trkpt>
      <trkpt lat="44.18249" lon="0.70123">
        <ele>50</ele>
        <time>2025-12-07T15:04:57.148Z</time>
      </trkpt>
      <trkpt lat="44.18244" lon="0.70123">
        <ele>49</ele>
        <time>2025-12-07T15:05:01.148Z</time>
      </trkpt>
      <trkpt lat="44.18235" lon="0.70121">
        <ele>50</ele>
        <time>2025-12-07T15:05:09.148Z</time>
      </trkpt>
      <trkpt lat="44.18226" lon="0.70117">
        <ele>50</ele>
        <time>2025-12-07T15:05:17.148Z</time>
      </trkpt>
      <trkpt lat="44.18217" lon="0.70115">
        <ele>50</ele>
        <time>2025-12-07T15:05:25.148Z</time>
      </trkpt>
      <trkpt lat="44.18208" lon="0.70113">
        <ele>49</ele>
        <time>2025-12-07T15:05:33.148Z</time>
      </trkpt>
      <trkpt lat="44.18194" lon="0.70113">
        <ele>51</ele>
        <time>2025-12-07T15:05:45.148Z</time>
      </trkpt>
      <trkpt lat="44.18189" lon="0.70114">
        <ele>53</ele>
        <time>2025-12-07T15:05:49.148Z</time>
      </trkpt>
      <trkpt lat="44.1818" lon="0.70113">
        <ele>51</ele>
        <time>2025-12-07T15:05:57.148Z</time>
      </trkpt>
      <trkpt lat="44.18171" lon="0.70109">
        <ele>49</ele>
        <time>2025-12-07T15:06:05.148Z</time>
      </trkpt>
      <trkpt lat="44.18161" lon="0.70108">
        <ele>48</ele>
        <time>2025-12-07T15:06:13.148Z</time>
      </trkpt>
      <trkpt lat="44.18154" lon="0.70108">
        <ele>49</ele>
        <time>2025-12-07T15:06:19.148Z</time>
      </trkpt>
      <trkpt lat="44.18136" lon="0.70105">
        <ele>51</ele>
        <time>2025-12-07T15:06:35.148Z</time>
      </trkpt>
      <trkpt lat="44.1813" lon="0.70105">
        <ele>51</ele>
        <time>2025-12-07T15:06:39.148Z</time>
      </trkpt>
      <trkpt lat="44.18118" lon="0.70103">
        <ele>53</ele>
        <time>2025-12-07T15:06:49.148Z</time>
      </trkpt>
      <trkpt lat="44.18108" lon="0.70099">
        <ele>52</ele>
        <time>2025-12-07T15:06:57.148Z</time>
      </trkpt>
      <trkpt lat="44.18104" lon="0.70095">
        <ele>52</ele>
        <time>2025-12-07T15:07:01.148Z</time>
      </trkpt>
      <trkpt lat="44.18085" lon="0.70091">
        <ele>54</ele>
        <time>2025-12-07T15:07:17.148Z</time>
      </trkpt>
      <trkpt lat="44.1808" lon="0.70089">
        <ele>53</ele>
        <time>2025-12-07T15:07:21.148Z</time>
      </trkpt>
      <trkpt lat="44.18066" lon="0.70084">
        <ele>54</ele>
        <time>2025-12-07T15:07:33.148Z</time>
      </trkpt>
      <trkpt lat="44.18053" lon="0.70078">
        <ele>51</ele>
        <time>2025-12-07T15:07:45.148Z</time>
      </trkpt>
      <trkpt lat="44.18045" lon="0.70077">
        <ele>54</ele>
        <time>2025-12-07T15:07:53.148Z</time>
      </trkpt>
      <trkpt lat="44.1803" lon="0.70071">
        <ele>55</ele>
        <time>2025-12-07T15:08:09.148Z</time>
      </trkpt>
      <trkpt lat="44.18029" lon="0.7007">
        <ele>55</ele>
        <time>2025-12-07T15:08:11.148Z</time>
      </trkpt>
      <trkpt lat="44.1802" lon="0.70069">
        <ele>54</ele>
        <time>2025-12-07T15:08:19.148Z</time>
      </trkpt>
      <trkpt lat="44.18011" lon="0.70064">
        <ele>51</ele>
        <time>2025-12-07T15:08:27.148Z</time>
      </trkpt>
      <trkpt lat="44.18008" lon="0.7006">
        <ele>50</ele>
        <time>2025-12-07T15:08:31.148Z</time>
      </trkpt>
      <trkpt lat="44.18001" lon="0.70058">
        <ele>47</ele>
        <time>2025-12-07T15:08:39.148Z</time>
      </trkpt>
      <trkpt lat="44.17978" lon="0.70056">
        <ele>49</ele>
        <time>2025-12-07T15:08:57.148Z</time>
      </trkpt>
      <trkpt lat="44.17974" lon="0.70057">
        <ele>50</ele>
        <time>2025-12-07T15:09:01.148Z</time>
      </trkpt>
      <trkpt lat="44.1797" lon="0.70056">
        <ele>52</ele>
        <time>2025-12-07T15:09:05.148Z</time>
      </trkpt>
      <trkpt lat="44.17965" lon="0.70056">
        <ele>55</ele>
        <time>2025-12-07T15:09:11.148Z</time>
      </trkpt>
      <trkpt lat="44.1796" lon="0.70053">
        <ele>57</ele>
        <time>2025-12-07T15:09:19.148Z</time>
      </trkpt>
      <trkpt lat="44.17957" lon="0.70054">
        <ele>58</ele>
        <time>2025-12-07T15:09:21.148Z</time>
      </trkpt>
      <trkpt lat="44.17944" lon="0.70056">
        <ele>61</ele>
        <time>2025-12-07T15:09:35.148Z</time>
      </trkpt>
      <trkpt lat="44.17934" lon="0.70062">
        <ele>66</ele>
        <time>2025-12-07T15:09:45.148Z</time>
      </trkpt>
      <trkpt lat="44.17928" lon="0.70063">
        <ele>69</ele>
        <time>2025-12-07T15:09:53.148Z</time>
      </trkpt>
      <trkpt lat="44.17924" lon="0.70066">
        <ele>69</ele>
        <time>2025-12-07T15:09:57.148Z</time>
      </trkpt>
      <trkpt lat="44.17921" lon="0.70065">
        <ele>70</ele>
        <time>2025-12-07T15:10:01.148Z</time>
      </trkpt>
      <trkpt lat="44.17917" lon="0.70066">
        <ele>71</ele>
        <time>2025-12-07T15:10:04.148Z</time>
      </trkpt>
      <trkpt lat="44.17908" lon="0.70071">
        <ele>72</ele>
        <time>2025-12-07T15:10:12.148Z</time>
      </trkpt>
      <trkpt lat="44.17897" lon="0.70075">
        <ele>71</ele>
        <time>2025-12-07T15:10:20.148Z</time>
      </trkpt>
      <trkpt lat="44.17889" lon="0.7008">
        <ele>66</ele>
        <time>2025-12-07T15:10:36.148Z</time>
      </trkpt>
      <trkpt lat="44.17883" lon="0.70082">
        <ele>65</ele>
        <time>2025-12-07T15:10:44.148Z</time>
      </trkpt>
      <trkpt lat="44.17881" lon="0.70082">
        <ele>64</ele>
        <time>2025-12-07T15:10:46.148Z</time>
      </trkpt>
      <trkpt lat="44.17879" lon="0.70084">
        <ele>62</ele>
        <time>2025-12-07T15:10:50.148Z</time>
      </trkpt>
      <trkpt lat="44.17871" lon="0.70087">
        <ele>60</ele>
        <time>2025-12-07T15:10:54.148Z</time>
      </trkpt>
      <trkpt lat="44.1786" lon="0.70086">
        <ele>62</ele>
        <time>2025-12-07T15:11:02.148Z</time>
      </trkpt>
      <trkpt lat="44.17857" lon="0.70086">
        <ele>63</ele>
        <time>2025-12-07T15:11:04.148Z</time>
      </trkpt>
      <trkpt lat="44.17852" lon="0.70086">
        <ele>65</ele>
        <time>2025-12-07T15:11:08.148Z</time>
      </trkpt>
      <trkpt lat="44.17838" lon="0.70087">
        <ele>67</ele>
        <time>2025-12-07T15:11:16.148Z</time>
      </trkpt>
      <trkpt lat="44.17836" lon="0.70086">
        <ele>66</ele>
        <time>2025-12-07T15:11:18.148Z</time>
      </trkpt>
      <trkpt lat="44.17815" lon="0.70089">
        <ele>65</ele>
        <time>2025-12-07T15:11:34.148Z</time>
      </trkpt>
      <trkpt lat="44.17804" lon="0.70086">
        <ele>65</ele>
        <time>2025-12-07T15:11:42.148Z</time>
      </trkpt>
      <trkpt lat="44.17796" lon="0.70085">
        <ele>66</ele>
        <time>2025-12-07T15:11:48.148Z</time>
      </trkpt>
      <trkpt lat="44.17792" lon="0.70083">
        <ele>66</ele>
        <time>2025-12-07T15:11:52.148Z</time>
      </trkpt>
      <trkpt lat="44.17783" lon="0.7008">
        <ele>64</ele>
        <time>2025-12-07T15:12:00.148Z</time>
      </trkpt>
      <trkpt lat="44.1778" lon="0.70078">
        <ele>64</ele>
        <time>2025-12-07T15:12:04.148Z</time>
      </trkpt>
      <trkpt lat="44.17775" lon="0.70083">
        <ele>65</ele>
        <time>2025-12-07T15:12:10.148Z</time>
      </trkpt>
      <trkpt lat="44.1777" lon="0.70085">
        <ele>63</ele>
        <time>2025-12-07T15:12:18.148Z</time>
      </trkpt>
      <trkpt lat="44.17767" lon="0.70088">
        <ele>62</ele>
        <time>2025-12-07T15:12:22.148Z</time>
      </trkpt>
      <trkpt lat="44.17764" lon="0.70089">
        <ele>61</ele>
        <time>2025-12-07T15:12:26.148Z</time>
      </trkpt>
      <trkpt lat="44.17762" lon="0.70088">
        <ele>61</ele>
        <time>2025-12-07T15:12:28.148Z</time>
      </trkpt>
      <trkpt lat="44.17759" lon="0.70089">
        <ele>60</ele>
        <time>2025-12-07T15:12:30.148Z</time>
      </trkpt>
      <trkpt lat="44.17755" lon="0.70086">
        <ele>57</ele>
        <time>2025-12-07T15:12:36.148Z</time>
      </trkpt>
      <trkpt lat="44.1775" lon="0.70086">
        <ele>54</ele>
        <time>2025-12-07T15:12:40.148Z</time>
      </trkpt>
      <trkpt lat="44.17745" lon="0.70084">
        <ele>52</ele>
        <time>2025-12-07T15:12:44.148Z</time>
      </trkpt>
      <trkpt lat="44.17724" lon="0.70086">
        <ele>51</ele>
        <time>2025-12-07T15:13:00.148Z</time>
      </trkpt>
      <trkpt lat="44.17722" lon="0.70086">
        <ele>52</ele>
        <time>2025-12-07T15:13:02.148Z</time>
      </trkpt>
      <trkpt lat="44.1771" lon="0.70089">
        <ele>54</ele>
        <time>2025-12-07T15:13:12.148Z</time>
      </trkpt>
      <trkpt lat="44.17701" lon="0.70082">
        <ele>53</ele>
        <time>2025-12-07T15:13:22.148Z</time>
      </trkpt>
      <trkpt lat="44.17692" lon="0.7008">
        <ele>51</ele>
        <time>2025-12-07T15:13:30.148Z</time>
      </trkpt>
      <trkpt lat="44.17685" lon="0.70075">
        <ele>48</ele>
        <time>2025-12-07T15:13:36.148Z</time>
      </trkpt>
      <trkpt lat="44.17681" lon="0.7007">
        <ele>47</ele>
        <time>2025-12-07T15:13:40.148Z</time>
      </trkpt>
      <trkpt lat="44.17676" lon="0.70065">
        <ele>48</ele>
        <time>2025-12-07T15:13:44.148Z</time>
      </trkpt>
      <trkpt lat="44.17672" lon="0.70061">
        <ele>49</ele>
        <time>2025-12-07T15:13:48.148Z</time>
      </trkpt>
      <trkpt lat="44.17666" lon="0.70058">
        <ele>51</ele>
        <time>2025-12-07T15:13:52.148Z</time>
      </trkpt>
      <trkpt lat="44.1766" lon="0.70054">
        <ele>50</ele>
        <time>2025-12-07T15:13:56.148Z</time>
      </trkpt>
      <trkpt lat="44.17656" lon="0.7005">
        <ele>50</ele>
        <time>2025-12-07T15:14:00.148Z</time>
      </trkpt>
      <trkpt lat="44.17647" lon="0.70044">
        <ele>50</ele>
        <time>2025-12-07T15:14:08.148Z</time>
      </trkpt>
      <trkpt lat="44.17643" lon="0.70039">
        <ele>51</ele>
        <time>2025-12-07T15:14:12.148Z</time>
      </trkpt>
      <trkpt lat="44.17638" lon="0.70036">
        <ele>51</ele>
        <time>2025-12-07T15:14:16.148Z</time>
      </trkpt>
      <trkpt lat="44.17632" lon="0.70036">
        <ele>52</ele>
        <time>2025-12-07T15:14:22.148Z</time>
      </trkpt>
      <trkpt lat="44.17627" lon="0.70037">
        <ele>52</ele>
        <time>2025-12-07T15:14:26.148Z</time>
      </trkpt>
      <trkpt lat="44.17619" lon="0.70042">
        <ele>49</ele>
        <time>2025-12-07T15:14:34.148Z</time>
      </trkpt>
      <trkpt lat="44.17616" lon="0.70045">
        <ele>48</ele>
        <time>2025-12-07T15:14:38.148Z</time>
      </trkpt>
      <trkpt lat="44.17612" lon="0.70055">
        <ele>45</ele>
        <time>2025-12-07T15:14:46.148Z</time>
      </trkpt>
      <trkpt lat="44.17611" lon="0.70061">
        <ele>45</ele>
        <time>2025-12-07T15:14:50.148Z</time>
      </trkpt>
      <trkpt lat="44.17607" lon="0.70065">
        <ele>45</ele>
        <time>2025-12-07T15:14:54.148Z</time>
      </trkpt>
      <trkpt lat="44.17605" lon="0.7007">
        <ele>45</ele>
        <time>2025-12-07T15:14:58.148Z</time>
      </trkpt>
      <trkpt lat="44.17597" lon="0.70078">
        <ele>43</ele>
        <time>2025-12-07T15:15:06.148Z</time>
      </trkpt>
      <trkpt lat="44.17576" lon="0.7009">
        <ele>46</ele>
        <time>2025-12-07T15:15:26.148Z</time>
      </trkpt>
      <trkpt lat="44.17567" lon="0.70093">
        <ele>48</ele>
        <time>2025-12-07T15:15:34.148Z</time>
      </trkpt>
      <trkpt lat="44.17564" lon="0.70091">
        <ele>49</ele>
        <time>2025-12-07T15:15:38.148Z</time>
      </trkpt>
      <trkpt lat="44.17563" lon="0.70087">
        <ele>49</ele>
        <time>2025-12-07T15:15:46.148Z</time>
      </trkpt>
      <trkpt lat="44.17565" lon="0.7008">
        <ele>52</ele>
        <time>2025-12-07T15:15:54.148Z</time>
      </trkpt>
      <trkpt lat="44.17567" lon="0.70078">
        <ele>52</ele>
        <time>2025-12-07T15:15:56.148Z</time>
      </trkpt>
      <trkpt lat="44.17565" lon="0.70072">
        <ele>51</ele>
        <time>2025-12-07T15:16:00.148Z</time>
      </trkpt>
      <trkpt lat="44.17576" lon="0.70035">
        <ele>49</ele>
        <time>2025-12-07T15:16:24.148Z</time>
      </trkpt>
      <trkpt lat="44.17578" lon="0.70022">
        <ele>48</ele>
        <time>2025-12-07T15:16:32.148Z</time>
      </trkpt>
      <trkpt lat="44.17582" lon="0.70011">
        <ele>51</ele>
        <time>2025-12-07T15:16:40.148Z</time>
      </trkpt>
      <trkpt lat="44.17585" lon="0.69971">
        <ele>48</ele>
        <time>2025-12-07T15:17:06.148Z</time>
      </trkpt>
      <trkpt lat="44.17583" lon="0.69969">
        <ele>48</ele>
        <time>2025-12-07T15:17:08.148Z</time>
      </trkpt>
      <trkpt lat="44.17583" lon="0.69957">
        <ele>47</ele>
        <time>2025-12-07T15:17:16.148Z</time>
      </trkpt>
      <trkpt lat="44.17586" lon="0.69935">
        <ele>47</ele>
        <time>2025-12-07T15:17:30.148Z</time>
      </trkpt>
      <trkpt lat="44.1758" lon="0.69924">
        <ele>48</ele>
        <time>2025-12-07T15:17:38.148Z</time>
      </trkpt>
      <trkpt lat="44.17575" lon="0.69912">
        <ele>47</ele>
        <time>2025-12-07T15:17:46.148Z</time>
      </trkpt>
      <trkpt lat="44.17575" lon="0.69908">
        <ele>47</ele>
        <time>2025-12-07T15:17:49.148Z</time>
      </trkpt>
      <trkpt lat="44.17578" lon="0.69903">
        <ele>48</ele>
        <time>2025-12-07T15:17:53.148Z</time>
      </trkpt>
      <trkpt lat="44.17577" lon="0.699">
        <ele>47</ele>
        <time>2025-12-07T15:17:56.148Z</time>
      </trkpt>
      <trkpt lat="44.17578" lon="0.69898">
        <ele>47</ele>
        <time>2025-12-07T15:17:58.148Z</time>
      </trkpt>
      <trkpt lat="44.17575" lon="0.69893">
        <ele>48</ele>
        <time>2025-12-07T15:18:03.148Z</time>
      </trkpt>
      <trkpt lat="44.17573" lon="0.69885">
        <ele>48</ele>
        <time>2025-12-07T15:18:09.148Z</time>
      </trkpt>
      <trkpt lat="44.1757" lon="0.69883">
        <ele>49</ele>
        <time>2025-12-07T15:18:12.148Z</time>
      </trkpt>
      <trkpt lat="44.17569" lon="0.69876">
        <ele>49</ele>
        <time>2025-12-07T15:18:16.148Z</time>
      </trkpt>
      <trkpt lat="44.17568" lon="0.6986">
        <ele>48</ele>
        <time>2025-12-07T15:18:24.148Z</time>
      </trkpt>
      <trkpt lat="44.17563" lon="0.69826">
        <ele>46</ele>
        <time>2025-12-07T15:18:46.148Z</time>
      </trkpt>
      <trkpt lat="44.17563" lon="0.69798">
        <ele>47</ele>
        <time>2025-12-07T15:19:02.148Z</time>
      </trkpt>
      <trkpt lat="44.17563" lon="0.69783">
        <ele>47</ele>
        <time>2025-12-07T15:19:10.148Z</time>
      </trkpt>
      <trkpt lat="44.17565" lon="0.69776">
        <ele>47</ele>
        <time>2025-12-07T15:19:14.148Z</time>
      </trkpt>
      <trkpt lat="44.17564" lon="0.69763">
        <ele>46</ele>
        <time>2025-12-07T15:19:22.148Z</time>
      </trkpt>
      <trkpt lat="44.17565" lon="0.6976">
        <ele>46</ele>
        <time>2025-12-07T15:19:24.148Z</time>
      </trkpt>
      <trkpt lat="44.17568" lon="0.69755">
        <ele>45</ele>
        <time>2025-12-07T15:19:32.148Z</time>
      </trkpt>
      <trkpt lat="44.17566" lon="0.69755">
        <ele>46</ele>
        <time>2025-12-07T15:19:40.148Z</time>
      </trkpt>
      <trkpt lat="44.17566" lon="0.69749">
        <ele>46</ele>
        <time>2025-12-07T15:19:44.148Z</time>
      </trkpt>
      <trkpt lat="44.17568" lon="0.69735">
        <ele>45</ele>
        <time>2025-12-07T15:19:52.148Z</time>
      </trkpt>
      <trkpt lat="44.17566" lon="0.69728">
        <ele>45</ele>
        <time>2025-12-07T15:19:56.148Z</time>
      </trkpt>
      <trkpt lat="44.17566" lon="0.6972">
        <ele>43</ele>
        <time>2025-12-07T15:20:00.148Z</time>
      </trkpt>
      <trkpt lat="44.17567" lon="0.69711">
        <ele>44</ele>
        <time>2025-12-07T15:20:04.148Z</time>
      </trkpt>
      <trkpt lat="44.17566" lon="0.69692">
        <ele>44</ele>
        <time>2025-12-07T15:20:14.148Z</time>
      </trkpt>
      <trkpt lat="44.17565" lon="0.69688">
        <ele>44</ele>
        <time>2025-12-07T15:20:16.148Z</time>
      </trkpt>
      <trkpt lat="44.17566" lon="0.6968">
        <ele>44</ele>
        <time>2025-12-07T15:20:20.148Z</time>
      </trkpt>
      <trkpt lat="44.17565" lon="0.69673">
        <ele>45</ele>
        <time>2025-12-07T15:20:24.148Z</time>
      </trkpt>
      <trkpt lat="44.17562" lon="0.69664">
        <ele>44</ele>
        <time>2025-12-07T15:20:30.148Z</time>
      </trkpt>
      <trkpt lat="44.17563" lon="0.69657">
        <ele>45</ele>
        <time>2025-12-07T15:20:34.148Z</time>
      </trkpt>
      <trkpt lat="44.17555" lon="0.69618">
        <ele>46</ele>
        <time>2025-12-07T15:20:58.148Z</time>
      </trkpt>
      <trkpt lat="44.17551" lon="0.69606">
        <ele>46</ele>
        <time>2025-12-07T15:21:06.148Z</time>
      </trkpt>
      <trkpt lat="44.17547" lon="0.69582">
        <ele>46</ele>
        <time>2025-12-07T15:21:20.148Z</time>
      </trkpt>
      <trkpt lat="44.17543" lon="0.69578">
        <ele>47</ele>
        <time>2025-12-07T15:21:24.148Z</time>
      </trkpt>
      <trkpt lat="44.17539" lon="0.69575">
        <ele>48</ele>
        <time>2025-12-07T15:21:28.148Z</time>
      </trkpt>
      <trkpt lat="44.17534" lon="0.69575">
        <ele>49</ele>
        <time>2025-12-07T15:21:32.148Z</time>
      </trkpt>
      <trkpt lat="44.17519" lon="0.69578">
        <ele>50</ele>
        <time>2025-12-07T15:21:44.148Z</time>
      </trkpt>
      <trkpt lat="44.17512" lon="0.69579">
        <ele>50</ele>
        <time>2025-12-07T15:21:52.148Z</time>
      </trkpt>
      <trkpt lat="44.17511" lon="0.69578">
        <ele>48</ele>
        <time>2025-12-07T15:22:00.148Z</time>
      </trkpt>
      <trkpt lat="44.17507" lon="0.69577">
        <ele>45</ele>
        <time>2025-12-07T15:22:12.148Z</time>
      </trkpt>
      <trkpt lat="44.17507" lon="0.69576">
        <ele>47</ele>
        <time>2025-12-07T15:22:20.148Z</time>
      </trkpt>
      <trkpt lat="44.17507" lon="0.69577">
        <ele>48</ele>
        <time>2025-12-07T15:22:36.148Z</time>
      </trkpt>
      <trkpt lat="44.17507" lon="0.69575">
        <ele>50</ele>
        <time>2025-12-07T15:23:08.148Z</time>
      </trkpt>
      <trkpt lat="44.17507" lon="0.69575">
        <ele>48</ele>
        <time>2025-12-07T15:23:24.148Z</time>
      </trkpt>
      <trkpt lat="44.17506" lon="0.69576">
        <ele>48</ele>
        <time>2025-12-07T15:23:40.148Z</time>
      </trkpt>
      <trkpt lat="44.17503" lon="0.69572">
        <ele>49</ele>
        <time>2025-12-07T15:24:32.148Z</time>
      </trkpt>
      <trkpt lat="44.17501" lon="0.69573">
        <ele>48</ele>
        <time>2025-12-07T15:24:42.148Z</time>
      </trkpt>
      <trkpt lat="44.17497" lon="0.6957">
        <ele>47</ele>
        <time>2025-12-07T15:24:48.148Z</time>
      </trkpt>
      <trkpt lat="44.17495" lon="0.69568">
        <ele>47</ele>
        <time>2025-12-07T15:24:50.148Z</time>
      </trkpt>
      <trkpt lat="44.17495" lon="0.69558">
        <ele>45</ele>
        <time>2025-12-07T15:24:56.148Z</time>
      </trkpt>
      <trkpt lat="44.17493" lon="0.69543">
        <ele>44</ele>
        <time>2025-12-07T15:25:06.148Z</time>
      </trkpt>
      <trkpt lat="44.17492" lon="0.69541">
        <ele>43</ele>
        <time>2025-12-07T15:25:08.148Z</time>
      </trkpt>
      <trkpt lat="44.17491" lon="0.6953">
        <ele>42</ele>
        <time>2025-12-07T15:25:16.148Z</time>
      </trkpt>
      <trkpt lat="44.17489" lon="0.69525">
        <ele>42</ele>
        <time>2025-12-07T15:25:20.148Z</time>
      </trkpt>
      <trkpt lat="44.17487" lon="0.69506">
        <ele>47</ele>
        <time>2025-12-07T15:25:30.148Z</time>
      </trkpt>
      <trkpt lat="44.17488" lon="0.69502">
        <ele>47</ele>
        <time>2025-12-07T15:25:32.148Z</time>
      </trkpt>
      <trkpt lat="44.17488" lon="0.69497">
        <ele>48</ele>
        <time>2025-12-07T15:25:34.148Z</time>
      </trkpt>
      <trkpt lat="44.17486" lon="0.69492">
        <ele>49</ele>
        <time>2025-12-07T15:25:38.148Z</time>
      </trkpt>
      <trkpt lat="44.17487" lon="0.69482">
        <ele>47</ele>
        <time>2025-12-07T15:25:46.148Z</time>
      </trkpt>
      <trkpt lat="44.17484" lon="0.69472">
        <ele>45</ele>
        <time>2025-12-07T15:25:54.148Z</time>
      </trkpt>
      <trkpt lat="44.17484" lon="0.6947">
        <ele>46</ele>
        <time>2025-12-07T15:26:02.148Z</time>
      </trkpt>
      <trkpt lat="44.17483" lon="0.69462">
        <ele>44</ele>
        <time>2025-12-07T15:26:14.148Z</time>
      </trkpt>
      <trkpt lat="44.17481" lon="0.69457">
        <ele>44</ele>
        <time>2025-12-07T15:26:18.148Z</time>
      </trkpt>
      <trkpt lat="44.17477" lon="0.69452">
        <ele>45</ele>
        <time>2025-12-07T15:26:50.148Z</time>
      </trkpt>
      <trkpt lat="44.17474" lon="0.69453">
        <ele>45</ele>
        <time>2025-12-07T15:27:22.148Z</time>
      </trkpt>
      <trkpt lat="44.17472" lon="0.69452">
        <ele>46</ele>
        <time>2025-12-07T15:27:38.148Z</time>
      </trkpt>
      <trkpt lat="44.17472" lon="0.69451">
        <ele>47</ele>
        <time>2025-12-07T15:27:46.148Z</time>
      </trkpt>
      <trkpt lat="44.17472" lon="0.69452">
        <ele>47</ele>
        <time>2025-12-07T15:28:02.148Z</time>
      </trkpt>
      <trkpt lat="44.17473" lon="0.6945">
        <ele>46</ele>
        <time>2025-12-07T15:28:06.148Z</time>
      </trkpt>
      <trkpt lat="44.17472" lon="0.69452">
        <ele>44</ele>
        <time>2025-12-07T15:28:14.148Z</time>
      </trkpt>
      <trkpt lat="44.17473" lon="0.69449">
        <ele>44</ele>
        <time>2025-12-07T15:28:18.148Z</time>
      </trkpt>
      <trkpt lat="44.17476" lon="0.69442">
        <ele>46</ele>
        <time>2025-12-07T15:28:22.148Z</time>
      </trkpt>
      <trkpt lat="44.17478" lon="0.69441">
        <ele>48</ele>
        <time>2025-12-07T15:28:30.148Z</time>
      </trkpt>
      <trkpt lat="44.17477" lon="0.69441">
        <ele>45</ele>
        <time>2025-12-07T15:28:38.148Z</time>
      </trkpt>
      <trkpt lat="44.17477" lon="0.6944">
        <ele>44</ele>
        <time>2025-12-07T15:28:42.148Z</time>
      </trkpt>
      <trkpt lat="44.17478" lon="0.69441">
        <ele>43</ele>
        <time>2025-12-07T15:28:46.148Z</time>
      </trkpt>
      <trkpt lat="44.17478" lon="0.69445">
        <ele>44</ele>
        <time>2025-12-07T15:28:50.148Z</time>
      </trkpt>
      <trkpt lat="44.17477" lon="0.69449">
        <ele>44</ele>
        <time>2025-12-07T15:28:52.148Z</time>
      </trkpt>
      <trkpt lat="44.17474" lon="0.69452">
        <ele>45</ele>
        <time>2025-12-07T15:29:00.148Z</time>
      </trkpt>
      <trkpt lat="44.17474" lon="0.69452">
        <ele>45</ele>
        <time>2025-12-07T15:29:02.148Z</time>
      </trkpt>
      <trkpt lat="44.17473" lon="0.69453">
        <ele>45</ele>
        <time>2025-12-07T15:29:10.148Z</time>
      </trkpt>
      <trkpt lat="44.17475" lon="0.69449">
        <ele>46</ele>
        <time>2025-12-07T15:29:14.148Z</time>
      </trkpt>
      <trkpt lat="44.17476" lon="0.69445">
        <ele>45</ele>
        <time>2025-12-07T15:29:17.148Z</time>
      </trkpt>
    </trkseg>
  </trk>
</gpx>